<?xml version="1.0" encoding="UTF-8" standalone="no" ?>
<gpx xmlns="http://www.topografix.com/GPX/1/1" xmlns:xsi="http://www.w3.org/2001/XMLSchema-instance" xsi:schemaLocation="http://www.topografix.com/GPX/1/1 http://www.topografix.com/GPX/1/1/gpx.xsd" version="1.1" creator="VisuGPX - https://www.visugpx.com">
  <metadata>
    <name>Annecy jour 3 - Le Môle</name>
    <desc><![CDATA[Séjours Pentecôte 2015 - Club Vosgien Wintzenheim]]></desc>
  </metadata>
  <trk>
    <name><![CDATA[Annecy jour 3 - Le Môle_1]]></name>
    <trkseg>
      <trkpt lat="46.10225" lon="6.43542">
        <ele>1132.959595</ele>
        <time>2015-05-25T09:04:21Z</time>
      </trkpt>
      <trkpt lat="46.10224" lon="6.43545">
        <ele>1133.762573</ele>
        <time>2015-05-25T09:04:23Z</time>
      </trkpt>
      <trkpt lat="46.10224" lon="6.43549">
        <ele>1130.571655</ele>
        <time>2015-05-25T09:04:25Z</time>
      </trkpt>
      <trkpt lat="46.10213" lon="6.43574">
        <ele>1130.263794</ele>
        <time>2015-05-25T09:04:45Z</time>
      </trkpt>
      <trkpt lat="46.10214" lon="6.43578">
        <ele>1131.601929</ele>
        <time>2015-05-25T09:04:49Z</time>
      </trkpt>
      <trkpt lat="46.10209" lon="6.43593">
        <ele>1131.74231</ele>
        <time>2015-05-25T09:04:57Z</time>
      </trkpt>
      <trkpt lat="46.102" lon="6.43611">
        <ele>1132.829712</ele>
        <time>2015-05-25T09:05:05Z</time>
      </trkpt>
      <trkpt lat="46.10195" lon="6.43623">
        <ele>1132.491089</ele>
        <time>2015-05-25T09:05:13Z</time>
      </trkpt>
      <trkpt lat="46.10174" lon="6.43652">
        <ele>1136.785889</ele>
        <time>2015-05-25T09:05:37Z</time>
      </trkpt>
      <trkpt lat="46.10137" lon="6.4368">
        <ele>1149.659424</ele>
        <time>2015-05-25T09:06:09Z</time>
      </trkpt>
      <trkpt lat="46.10119" lon="6.43688">
        <ele>1147.045288</ele>
        <time>2015-05-25T09:06:25Z</time>
      </trkpt>
      <trkpt lat="46.1006" lon="6.43692">
        <ele>1150.794434</ele>
        <time>2015-05-25T09:07:21Z</time>
      </trkpt>
      <trkpt lat="46.10049" lon="6.43698">
        <ele>1153.093506</ele>
        <time>2015-05-25T09:07:29Z</time>
      </trkpt>
      <trkpt lat="46.10011" lon="6.43727">
        <ele>1159.678833</ele>
        <time>2015-05-25T09:08:01Z</time>
      </trkpt>
      <trkpt lat="46.10004" lon="6.43727">
        <ele>1156.286133</ele>
        <time>2015-05-25T09:08:13Z</time>
      </trkpt>
      <trkpt lat="46.10004" lon="6.43725">
        <ele>1154.90625</ele>
        <time>2015-05-25T09:08:20Z</time>
      </trkpt>
      <trkpt lat="46.09978" lon="6.43748">
        <ele>1149.330047</ele>
        <time>2015-05-25T09:09:45Z</time>
      </trkpt>
      <trkpt lat="46.09923" lon="6.43826">
        <ele>1155.359489</ele>
        <time>2015-05-25T09:10:41Z</time>
      </trkpt>
      <trkpt lat="46.09918" lon="6.43837">
        <ele>1155.926361</ele>
        <time>2015-05-25T09:10:49Z</time>
      </trkpt>
      <trkpt lat="46.09915" lon="6.43846">
        <ele>1156.496515</ele>
        <time>2015-05-25T09:10:57Z</time>
      </trkpt>
      <trkpt lat="46.09919" lon="6.43862">
        <ele>1158.021491</ele>
        <time>2015-05-25T09:11:09Z</time>
      </trkpt>
      <trkpt lat="46.09921" lon="6.43908">
        <ele>1165.558364</ele>
        <time>2015-05-25T09:11:51Z</time>
      </trkpt>
      <trkpt lat="46.09917" lon="6.43921">
        <ele>1166.654255</ele>
        <time>2015-05-25T09:11:59Z</time>
      </trkpt>
      <trkpt lat="46.09911" lon="6.43931">
        <ele>1168.157367</ele>
        <time>2015-05-25T09:12:07Z</time>
      </trkpt>
      <trkpt lat="46.09912" lon="6.43938">
        <ele>1168.67202</ele>
        <time>2015-05-25T09:12:11Z</time>
      </trkpt>
      <trkpt lat="46.09909" lon="6.4395">
        <ele>1170.237331</ele>
        <time>2015-05-25T09:12:19Z</time>
      </trkpt>
      <trkpt lat="46.09913" lon="6.43955">
        <ele>1171.038124</ele>
        <time>2015-05-25T09:12:23Z</time>
      </trkpt>
      <trkpt lat="46.09907" lon="6.43965">
        <ele>1172.196082</ele>
        <time>2015-05-25T09:12:31Z</time>
      </trkpt>
      <trkpt lat="46.09899" lon="6.43992">
        <ele>1177.29684</ele>
        <time>2015-05-25T09:12:55Z</time>
      </trkpt>
      <trkpt lat="46.099" lon="6.43995">
        <ele>1178.190673</ele>
        <time>2015-05-25T09:12:59Z</time>
      </trkpt>
      <trkpt lat="46.09902" lon="6.43997">
        <ele>1178.574851</ele>
        <time>2015-05-25T09:13:03Z</time>
      </trkpt>
      <trkpt lat="46.09927" lon="6.43972">
        <ele>1184.346924</ele>
        <time>2015-05-25T09:13:43Z</time>
      </trkpt>
      <trkpt lat="46.09931" lon="6.43962">
        <ele>1186.282227</ele>
        <time>2015-05-25T09:13:51Z</time>
      </trkpt>
      <trkpt lat="46.09939" lon="6.43957">
        <ele>1189.715088</ele>
        <time>2015-05-25T09:13:59Z</time>
      </trkpt>
      <trkpt lat="46.09945" lon="6.43946">
        <ele>1192.449219</ele>
        <time>2015-05-25T09:14:07Z</time>
      </trkpt>
      <trkpt lat="46.09961" lon="6.43931">
        <ele>1199.042603</ele>
        <time>2015-05-25T09:14:23Z</time>
      </trkpt>
      <trkpt lat="46.0997" lon="6.43929">
        <ele>1197.034302</ele>
        <time>2015-05-25T09:14:31Z</time>
      </trkpt>
      <trkpt lat="46.10011" lon="6.43909">
        <ele>1203.127319</ele>
        <time>2015-05-25T09:15:15Z</time>
      </trkpt>
      <trkpt lat="46.10025" lon="6.43899">
        <ele>1205.038208</ele>
        <time>2015-05-25T09:15:31Z</time>
      </trkpt>
      <trkpt lat="46.10052" lon="6.43899">
        <ele>1212.595459</ele>
        <time>2015-05-25T09:16:03Z</time>
      </trkpt>
      <trkpt lat="46.10068" lon="6.43902">
        <ele>1213.002075</ele>
        <time>2015-05-25T09:16:19Z</time>
      </trkpt>
      <trkpt lat="46.10087" lon="6.43898">
        <ele>1208.542603</ele>
        <time>2015-05-25T09:16:35Z</time>
      </trkpt>
      <trkpt lat="46.101" lon="6.43901">
        <ele>1214.199219</ele>
        <time>2015-05-25T09:16:51Z</time>
      </trkpt>
      <trkpt lat="46.10109" lon="6.43896">
        <ele>1216.466064</ele>
        <time>2015-05-25T09:16:59Z</time>
      </trkpt>
      <trkpt lat="46.10145" lon="6.43909">
        <ele>1215.552638</ele>
        <time>2015-05-25T09:17:47Z</time>
      </trkpt>
      <trkpt lat="46.10176" lon="6.4393">
        <ele>1220.502712</ele>
        <time>2015-05-25T09:18:19Z</time>
      </trkpt>
      <trkpt lat="46.10211" lon="6.43958">
        <ele>1227.211911</ele>
        <time>2015-05-25T09:19:07Z</time>
      </trkpt>
      <trkpt lat="46.10218" lon="6.43961">
        <ele>1228.258509</ele>
        <time>2015-05-25T09:19:15Z</time>
      </trkpt>
      <trkpt lat="46.10227" lon="6.43971">
        <ele>1229.921185</ele>
        <time>2015-05-25T09:19:27Z</time>
      </trkpt>
      <trkpt lat="46.10247" lon="6.4398">
        <ele>1231.636034</ele>
        <time>2015-05-25T09:19:43Z</time>
      </trkpt>
      <trkpt lat="46.10258" lon="6.43993">
        <ele>1233.701361</ele>
        <time>2015-05-25T09:19:59Z</time>
      </trkpt>
      <trkpt lat="46.10268" lon="6.43996">
        <ele>1234.664027</ele>
        <time>2015-05-25T09:20:07Z</time>
      </trkpt>
      <trkpt lat="46.10275" lon="6.44002">
        <ele>1235.456112</ele>
        <time>2015-05-25T09:20:15Z</time>
      </trkpt>
      <trkpt lat="46.1028" lon="6.44008">
        <ele>1235.984682</ele>
        <time>2015-05-25T09:20:23Z</time>
      </trkpt>
      <trkpt lat="46.10314" lon="6.44011">
        <ele>1239.957612</ele>
        <time>2015-05-25T09:20:55Z</time>
      </trkpt>
      <trkpt lat="46.10323" lon="6.44014">
        <ele>1241.012057</ele>
        <time>2015-05-25T09:21:03Z</time>
      </trkpt>
      <trkpt lat="46.1033" lon="6.44013">
        <ele>1242.187513</ele>
        <time>2015-05-25T09:21:11Z</time>
      </trkpt>
      <trkpt lat="46.10347" lon="6.44003">
        <ele>1247.184313</ele>
        <time>2015-05-25T09:21:35Z</time>
      </trkpt>
      <trkpt lat="46.10377" lon="6.44015">
        <ele>1253.138062</ele>
        <time>2015-05-25T09:22:07Z</time>
      </trkpt>
      <trkpt lat="46.10381" lon="6.44025">
        <ele>1255.056396</ele>
        <time>2015-05-25T09:22:15Z</time>
      </trkpt>
      <trkpt lat="46.1038" lon="6.4403">
        <ele>1257.706909</ele>
        <time>2015-05-25T09:22:19Z</time>
      </trkpt>
      <trkpt lat="46.10378" lon="6.4403">
        <ele>1254.580921</ele>
        <time>2015-05-25T09:22:23Z</time>
      </trkpt>
      <trkpt lat="46.10381" lon="6.4402">
        <ele>1257.521362</ele>
        <time>2015-05-25T09:23:22Z</time>
      </trkpt>
      <trkpt lat="46.10372" lon="6.44027">
        <ele>1259.342896</ele>
        <time>2015-05-25T09:23:53Z</time>
      </trkpt>
      <trkpt lat="46.10367" lon="6.44025">
        <ele>1262.794067</ele>
        <time>2015-05-25T09:24:27Z</time>
      </trkpt>
      <trkpt lat="46.1036" lon="6.44027">
        <ele>1261.100952</ele>
        <time>2015-05-25T09:24:35Z</time>
      </trkpt>
      <trkpt lat="46.10352" lon="6.44034">
        <ele>1265.96228</ele>
        <time>2015-05-25T09:24:43Z</time>
      </trkpt>
      <trkpt lat="46.10343" lon="6.44055">
        <ele>1266.860474</ele>
        <time>2015-05-25T09:24:59Z</time>
      </trkpt>
      <trkpt lat="46.10337" lon="6.4406">
        <ele>1272.049438</ele>
        <time>2015-05-25T09:25:07Z</time>
      </trkpt>
      <trkpt lat="46.1033" lon="6.44073">
        <ele>1275.965942</ele>
        <time>2015-05-25T09:25:19Z</time>
      </trkpt>
      <trkpt lat="46.10316" lon="6.44074">
        <ele>1284.164185</ele>
        <time>2015-05-25T09:25:31Z</time>
      </trkpt>
      <trkpt lat="46.10305" lon="6.44085">
        <ele>1286.316162</ele>
        <time>2015-05-25T09:25:43Z</time>
      </trkpt>
      <trkpt lat="46.10293" lon="6.44083">
        <ele>1289.576904</ele>
        <time>2015-05-25T09:25:55Z</time>
      </trkpt>
      <trkpt lat="46.10283" lon="6.44084">
        <ele>1270.026596</ele>
        <time>2015-05-25T09:26:03Z</time>
      </trkpt>
      <trkpt lat="46.10277" lon="6.44088">
        <ele>1271.022131</ele>
        <time>2015-05-25T09:26:11Z</time>
      </trkpt>
      <trkpt lat="46.10238" lon="6.44097">
        <ele>1277.412069</ele>
        <time>2015-05-25T09:26:55Z</time>
      </trkpt>
      <trkpt lat="46.10229" lon="6.44104">
        <ele>1278.674739</ele>
        <time>2015-05-25T09:27:03Z</time>
      </trkpt>
      <trkpt lat="46.10205" lon="6.44099">
        <ele>1281.701915</ele>
        <time>2015-05-25T09:27:27Z</time>
      </trkpt>
      <trkpt lat="46.10193" lon="6.44088">
        <ele>1284.014424</ele>
        <time>2015-05-25T09:27:43Z</time>
      </trkpt>
      <trkpt lat="46.10182" lon="6.44086">
        <ele>1289.100708</ele>
        <time>2015-05-25T09:27:59Z</time>
      </trkpt>
      <trkpt lat="46.10166" lon="6.4408">
        <ele>1294.819458</ele>
        <time>2015-05-25T09:28:15Z</time>
      </trkpt>
      <trkpt lat="46.10157" lon="6.44082">
        <ele>1294.693237</ele>
        <time>2015-05-25T09:28:23Z</time>
      </trkpt>
      <trkpt lat="46.10154" lon="6.44079">
        <ele>1294.274048</ele>
        <time>2015-05-25T09:28:27Z</time>
      </trkpt>
      <trkpt lat="46.10128" lon="6.4408">
        <ele>1305.47583</ele>
        <time>2015-05-25T09:28:59Z</time>
      </trkpt>
      <trkpt lat="46.1012" lon="6.44085">
        <ele>1305.670288</ele>
        <time>2015-05-25T09:29:07Z</time>
      </trkpt>
      <trkpt lat="46.10112" lon="6.44086">
        <ele>1307.411987</ele>
        <time>2015-05-25T09:29:15Z</time>
      </trkpt>
      <trkpt lat="46.10106" lon="6.44092">
        <ele>1306.629395</ele>
        <time>2015-05-25T09:29:23Z</time>
      </trkpt>
      <trkpt lat="46.10098" lon="6.44094">
        <ele>1310.029175</ele>
        <time>2015-05-25T09:29:31Z</time>
      </trkpt>
      <trkpt lat="46.10094" lon="6.441">
        <ele>1310.175049</ele>
        <time>2015-05-25T09:29:39Z</time>
      </trkpt>
      <trkpt lat="46.1009" lon="6.44101">
        <ele>1315.411011</ele>
        <time>2015-05-25T09:29:47Z</time>
      </trkpt>
      <trkpt lat="46.10087" lon="6.44109">
        <ele>1314.5271</ele>
        <time>2015-05-25T09:29:55Z</time>
      </trkpt>
      <trkpt lat="46.10083" lon="6.44109">
        <ele>1316.307007</ele>
        <time>2015-05-25T09:29:59Z</time>
      </trkpt>
      <trkpt lat="46.10078" lon="6.44118">
        <ele>1315.218384</ele>
        <time>2015-05-25T09:30:07Z</time>
      </trkpt>
      <trkpt lat="46.1007" lon="6.4414">
        <ele>1306.266832</ele>
        <time>2015-05-25T09:30:23Z</time>
      </trkpt>
      <trkpt lat="46.10069" lon="6.44151">
        <ele>1307.552158</ele>
        <time>2015-05-25T09:30:31Z</time>
      </trkpt>
      <trkpt lat="46.10064" lon="6.44168">
        <ele>1309.388423</ele>
        <time>2015-05-25T09:30:47Z</time>
      </trkpt>
      <trkpt lat="46.10063" lon="6.44179">
        <ele>1310.706105</ele>
        <time>2015-05-25T09:30:55Z</time>
      </trkpt>
      <trkpt lat="46.1006" lon="6.44189">
        <ele>1311.541844</ele>
        <time>2015-05-25T09:31:03Z</time>
      </trkpt>
      <trkpt lat="46.10061" lon="6.44215">
        <ele>1315.296753</ele>
        <time>2015-05-25T09:31:27Z</time>
      </trkpt>
      <trkpt lat="46.1006" lon="6.44227">
        <ele>1313.608154</ele>
        <time>2015-05-25T09:31:35Z</time>
      </trkpt>
      <trkpt lat="46.10062" lon="6.44239">
        <ele>1320.562866</ele>
        <time>2015-05-25T09:31:43Z</time>
      </trkpt>
      <trkpt lat="46.10062" lon="6.4425">
        <ele>1322.390747</ele>
        <time>2015-05-25T09:31:51Z</time>
      </trkpt>
      <trkpt lat="46.10065" lon="6.44265">
        <ele>1323.496582</ele>
        <time>2015-05-25T09:31:59Z</time>
      </trkpt>
      <trkpt lat="46.10063" lon="6.44277">
        <ele>1318.484423</ele>
        <time>2015-05-25T09:32:07Z</time>
      </trkpt>
      <trkpt lat="46.10064" lon="6.44283">
        <ele>1318.719906</ele>
        <time>2015-05-25T09:32:11Z</time>
      </trkpt>
      <trkpt lat="46.10061" lon="6.44289">
        <ele>1318.995825</ele>
        <time>2015-05-25T09:32:15Z</time>
      </trkpt>
      <trkpt lat="46.10055" lon="6.44296">
        <ele>1320.254393</ele>
        <time>2015-05-25T09:32:23Z</time>
      </trkpt>
      <trkpt lat="46.10058" lon="6.44307">
        <ele>1321.624619</ele>
        <time>2015-05-25T09:32:31Z</time>
      </trkpt>
      <trkpt lat="46.10063" lon="6.44318">
        <ele>1322.471979</ele>
        <time>2015-05-25T09:32:39Z</time>
      </trkpt>
      <trkpt lat="46.10061" lon="6.44334">
        <ele>1324.78486</ele>
        <time>2015-05-25T09:32:55Z</time>
      </trkpt>
      <trkpt lat="46.10062" lon="6.44343">
        <ele>1325.743027</ele>
        <time>2015-05-25T09:33:03Z</time>
      </trkpt>
      <trkpt lat="46.10059" lon="6.44364">
        <ele>1327.873503</ele>
        <time>2015-05-25T09:33:19Z</time>
      </trkpt>
      <trkpt lat="46.1006" lon="6.44375">
        <ele>1328.938684</ele>
        <time>2015-05-25T09:33:27Z</time>
      </trkpt>
      <trkpt lat="46.10066" lon="6.4439">
        <ele>1331.068106</ele>
        <time>2015-05-25T09:33:39Z</time>
      </trkpt>
      <trkpt lat="46.10062" lon="6.44405">
        <ele>1333.182922</ele>
        <time>2015-05-25T09:33:51Z</time>
      </trkpt>
      <trkpt lat="46.10061" lon="6.44417">
        <ele>1334.167267</ele>
        <time>2015-05-25T09:33:59Z</time>
      </trkpt>
      <trkpt lat="46.10058" lon="6.44432">
        <ele>1333.228516</ele>
        <time>2015-05-25T09:34:11Z</time>
      </trkpt>
      <trkpt lat="46.10063" lon="6.44447">
        <ele>1336.731757</ele>
        <time>2015-05-25T09:34:23Z</time>
      </trkpt>
      <trkpt lat="46.10064" lon="6.44472">
        <ele>1338.950293</ele>
        <time>2015-05-25T09:34:43Z</time>
      </trkpt>
      <trkpt lat="46.10062" lon="6.44476">
        <ele>1339.63792</ele>
        <time>2015-05-25T09:34:47Z</time>
      </trkpt>
      <trkpt lat="46.10062" lon="6.44481">
        <ele>1339.880101</ele>
        <time>2015-05-25T09:34:51Z</time>
      </trkpt>
      <trkpt lat="46.10067" lon="6.44494">
        <ele>1341.140404</ele>
        <time>2015-05-25T09:34:59Z</time>
      </trkpt>
      <trkpt lat="46.10069" lon="6.44504">
        <ele>1342.188377</ele>
        <time>2015-05-25T09:35:07Z</time>
      </trkpt>
      <trkpt lat="46.10075" lon="6.44515">
        <ele>1343.924406</ele>
        <time>2015-05-25T09:35:19Z</time>
      </trkpt>
      <trkpt lat="46.10074" lon="6.44536">
        <ele>1345.012329</ele>
        <time>2015-05-25T09:35:35Z</time>
      </trkpt>
      <trkpt lat="46.10076" lon="6.44559">
        <ele>1349.256958</ele>
        <time>2015-05-25T09:35:51Z</time>
      </trkpt>
      <trkpt lat="46.10075" lon="6.44564">
        <ele>1350.88501</ele>
        <time>2015-05-25T09:35:55Z</time>
      </trkpt>
      <trkpt lat="46.1007" lon="6.4457">
        <ele>1351.818359</ele>
        <time>2015-05-25T09:36:03Z</time>
      </trkpt>
      <trkpt lat="46.1007" lon="6.44576">
        <ele>1351.879272</ele>
        <time>2015-05-25T09:36:07Z</time>
      </trkpt>
      <trkpt lat="46.10077" lon="6.44589">
        <ele>1355.074707</ele>
        <time>2015-05-25T09:36:15Z</time>
      </trkpt>
      <trkpt lat="46.10081" lon="6.44603">
        <ele>1357.380859</ele>
        <time>2015-05-25T09:36:27Z</time>
      </trkpt>
      <trkpt lat="46.10086" lon="6.44614">
        <ele>1357.96814</ele>
        <time>2015-05-25T09:36:35Z</time>
      </trkpt>
      <trkpt lat="46.10086" lon="6.44618">
        <ele>1358.45752</ele>
        <time>2015-05-25T09:36:39Z</time>
      </trkpt>
      <trkpt lat="46.10081" lon="6.44623">
        <ele>1358.703857</ele>
        <time>2015-05-25T09:36:43Z</time>
      </trkpt>
      <trkpt lat="46.10083" lon="6.44633">
        <ele>1362.418579</ele>
        <time>2015-05-25T09:36:49Z</time>
      </trkpt>
      <trkpt lat="46.10077" lon="6.44643">
        <ele>1365.069702</ele>
        <time>2015-05-25T09:36:57Z</time>
      </trkpt>
      <trkpt lat="46.10077" lon="6.44661">
        <ele>1366.195068</ele>
        <time>2015-05-25T09:37:09Z</time>
      </trkpt>
      <trkpt lat="46.10071" lon="6.44668">
        <ele>1359.956533</ele>
        <time>2015-05-25T09:37:15Z</time>
      </trkpt>
      <trkpt lat="46.10079" lon="6.44679">
        <ele>1365.242554</ele>
        <time>2015-05-25T09:37:23Z</time>
      </trkpt>
      <trkpt lat="46.10075" lon="6.44683">
        <ele>1365.933716</ele>
        <time>2015-05-25T09:37:27Z</time>
      </trkpt>
      <trkpt lat="46.10085" lon="6.44697">
        <ele>1368.964966</ele>
        <time>2015-05-25T09:37:35Z</time>
      </trkpt>
      <trkpt lat="46.1009" lon="6.44702">
        <ele>1367.954346</ele>
        <time>2015-05-25T09:37:39Z</time>
      </trkpt>
      <trkpt lat="46.10089" lon="6.4471">
        <ele>1370.887451</ele>
        <time>2015-05-25T09:37:47Z</time>
      </trkpt>
      <trkpt lat="46.10086" lon="6.44717">
        <ele>1372.640869</ele>
        <time>2015-05-25T09:37:53Z</time>
      </trkpt>
      <trkpt lat="46.10095" lon="6.44728">
        <ele>1370.423096</ele>
        <time>2015-05-25T09:38:01Z</time>
      </trkpt>
      <trkpt lat="46.10096" lon="6.44733">
        <ele>1370.889282</ele>
        <time>2015-05-25T09:38:05Z</time>
      </trkpt>
      <trkpt lat="46.10085" lon="6.44737">
        <ele>1372.514404</ele>
        <time>2015-05-25T09:38:13Z</time>
      </trkpt>
      <trkpt lat="46.10084" lon="6.44742">
        <ele>1369.800415</ele>
        <time>2015-05-25T09:38:21Z</time>
      </trkpt>
      <trkpt lat="46.10075" lon="6.44751">
        <ele>1369.869995</ele>
        <time>2015-05-25T09:38:33Z</time>
      </trkpt>
      <trkpt lat="46.10076" lon="6.44759">
        <ele>1371.242798</ele>
        <time>2015-05-25T09:38:37Z</time>
      </trkpt>
      <trkpt lat="46.10084" lon="6.44772">
        <ele>1374.738892</ele>
        <time>2015-05-25T09:38:45Z</time>
      </trkpt>
      <trkpt lat="46.10078" lon="6.44774">
        <ele>1377.285034</ele>
        <time>2015-05-25T09:38:49Z</time>
      </trkpt>
      <trkpt lat="46.10074" lon="6.4479">
        <ele>1382.216431</ele>
        <time>2015-05-25T09:39:01Z</time>
      </trkpt>
      <trkpt lat="46.10076" lon="6.44793">
        <ele>1381.090332</ele>
        <time>2015-05-25T09:39:05Z</time>
      </trkpt>
      <trkpt lat="46.10075" lon="6.44801">
        <ele>1383.045532</ele>
        <time>2015-05-25T09:39:13Z</time>
      </trkpt>
      <trkpt lat="46.10079" lon="6.44812">
        <ele>1385.300903</ele>
        <time>2015-05-25T09:39:21Z</time>
      </trkpt>
      <trkpt lat="46.10079" lon="6.44815">
        <ele>1385.527466</ele>
        <time>2015-05-25T09:39:23Z</time>
      </trkpt>
      <trkpt lat="46.10082" lon="6.44822">
        <ele>1386.834351</ele>
        <time>2015-05-25T09:39:28Z</time>
      </trkpt>
      <trkpt lat="46.10073" lon="6.44827">
        <ele>1386.801392</ele>
        <time>2015-05-25T09:39:36Z</time>
      </trkpt>
      <trkpt lat="46.10071" lon="6.4483">
        <ele>1387.029907</ele>
        <time>2015-05-25T09:39:40Z</time>
      </trkpt>
      <trkpt lat="46.10074" lon="6.44841">
        <ele>1391.761108</ele>
        <time>2015-05-25T09:39:48Z</time>
      </trkpt>
      <trkpt lat="46.10074" lon="6.44861">
        <ele>1393.281128</ele>
        <time>2015-05-25T09:40:02Z</time>
      </trkpt>
      <trkpt lat="46.10072" lon="6.44865">
        <ele>1394.019531</ele>
        <time>2015-05-25T09:40:06Z</time>
      </trkpt>
      <trkpt lat="46.10073" lon="6.44877">
        <ele>1395.5271</ele>
        <time>2015-05-25T09:40:14Z</time>
      </trkpt>
      <trkpt lat="46.10078" lon="6.44884">
        <ele>1397.775757</ele>
        <time>2015-05-25T09:40:18Z</time>
      </trkpt>
      <trkpt lat="46.1008" lon="6.44906">
        <ele>1399.880981</ele>
        <time>2015-05-25T09:40:38Z</time>
      </trkpt>
      <trkpt lat="46.10078" lon="6.44908">
        <ele>1402.148071</ele>
        <time>2015-05-25T09:40:42Z</time>
      </trkpt>
      <trkpt lat="46.10076" lon="6.44907">
        <ele>1402.109253</ele>
        <time>2015-05-25T09:40:46Z</time>
      </trkpt>
      <trkpt lat="46.10075" lon="6.4491">
        <ele>1401.256104</ele>
        <time>2015-05-25T09:40:50Z</time>
      </trkpt>
      <trkpt lat="46.10082" lon="6.44927">
        <ele>1402.580688</ele>
        <time>2015-05-25T09:41:00Z</time>
      </trkpt>
      <trkpt lat="46.10085" lon="6.44944">
        <ele>1407.707397</ele>
        <time>2015-05-25T09:41:06Z</time>
      </trkpt>
      <trkpt lat="46.10085" lon="6.44951">
        <ele>1408.972534</ele>
        <time>2015-05-25T09:41:08Z</time>
      </trkpt>
      <trkpt lat="46.10079" lon="6.44957">
        <ele>1407.384277</ele>
        <time>2015-05-25T09:41:10Z</time>
      </trkpt>
      <trkpt lat="46.10074" lon="6.44957">
        <ele>1407.829712</ele>
        <time>2015-05-25T09:41:12Z</time>
      </trkpt>
      <trkpt lat="46.10068" lon="6.44951">
        <ele>1408.970093</ele>
        <time>2015-05-25T09:41:18Z</time>
      </trkpt>
      <trkpt lat="46.10089" lon="6.44979">
        <ele>1407.227539</ele>
        <time>2015-05-25T09:41:40Z</time>
      </trkpt>
      <trkpt lat="46.10088" lon="6.44982">
        <ele>1408.218506</ele>
        <time>2015-05-25T09:41:44Z</time>
      </trkpt>
      <trkpt lat="46.1009" lon="6.44992">
        <ele>1411.510376</ele>
        <time>2015-05-25T09:41:50Z</time>
      </trkpt>
      <trkpt lat="46.10083" lon="6.44998">
        <ele>1412.249268</ele>
        <time>2015-05-25T09:41:58Z</time>
      </trkpt>
      <trkpt lat="46.10072" lon="6.44995">
        <ele>1413.64624</ele>
        <time>2015-05-25T09:42:14Z</time>
      </trkpt>
      <trkpt lat="46.10069" lon="6.44992">
        <ele>1413.283447</ele>
        <time>2015-05-25T09:42:18Z</time>
      </trkpt>
      <trkpt lat="46.10052" lon="6.44988">
        <ele>1414.061401</ele>
        <time>2015-05-25T09:42:34Z</time>
      </trkpt>
      <trkpt lat="46.10048" lon="6.4499">
        <ele>1414.103882</ele>
        <time>2015-05-25T09:42:42Z</time>
      </trkpt>
      <trkpt lat="46.10031" lon="6.4499">
        <ele>1411.9104</ele>
        <time>2015-05-25T09:43:00Z</time>
      </trkpt>
      <trkpt lat="46.10031" lon="6.44986">
        <ele>1411.55127</ele>
        <time>2015-05-25T09:43:04Z</time>
      </trkpt>
      <trkpt lat="46.10017" lon="6.44982">
        <ele>1418.224365</ele>
        <time>2015-05-25T09:43:20Z</time>
      </trkpt>
      <trkpt lat="46.1001" lon="6.44977">
        <ele>1418.418701</ele>
        <time>2015-05-25T09:43:52Z</time>
      </trkpt>
      <trkpt lat="46.10026" lon="6.4499">
        <ele>1414.019653</ele>
        <time>2015-05-25T09:44:08Z</time>
      </trkpt>
      <trkpt lat="46.10044" lon="6.44993">
        <ele>1407.28418</ele>
        <time>2015-05-25T09:44:24Z</time>
      </trkpt>
      <trkpt lat="46.10072" lon="6.44992">
        <ele>1406.167725</ele>
        <time>2015-05-25T09:44:40Z</time>
      </trkpt>
      <trkpt lat="46.10079" lon="6.44995">
        <ele>1406.529419</ele>
        <time>2015-05-25T09:44:44Z</time>
      </trkpt>
      <trkpt lat="46.10082" lon="6.44993">
        <ele>1406.538452</ele>
        <time>2015-05-25T09:44:48Z</time>
      </trkpt>
      <trkpt lat="46.10085" lon="6.44985">
        <ele>1407.582275</ele>
        <time>2015-05-25T09:44:52Z</time>
      </trkpt>
      <trkpt lat="46.10085" lon="6.44976">
        <ele>1408.767578</ele>
        <time>2015-05-25T09:44:56Z</time>
      </trkpt>
      <trkpt lat="46.1008" lon="6.44943">
        <ele>1407.80835</ele>
        <time>2015-05-25T09:46:08Z</time>
      </trkpt>
      <trkpt lat="46.10077" lon="6.4494">
        <ele>1410.339478</ele>
        <time>2015-05-25T09:47:16Z</time>
      </trkpt>
      <trkpt lat="46.10079" lon="6.44947">
        <ele>1406.637451</ele>
        <time>2015-05-25T09:47:45Z</time>
      </trkpt>
      <trkpt lat="46.10089" lon="6.44964">
        <ele>1406.69812</ele>
        <time>2015-05-25T09:47:53Z</time>
      </trkpt>
      <trkpt lat="46.10089" lon="6.44968">
        <ele>1411.158813</ele>
        <time>2015-05-25T09:47:57Z</time>
      </trkpt>
      <trkpt lat="46.10091" lon="6.44972">
        <ele>1411.524902</ele>
        <time>2015-05-25T09:48:01Z</time>
      </trkpt>
      <trkpt lat="46.1009" lon="6.44978">
        <ele>1411.660278</ele>
        <time>2015-05-25T09:48:09Z</time>
      </trkpt>
      <trkpt lat="46.10091" lon="6.44983">
        <ele>1412.090698</ele>
        <time>2015-05-25T09:48:13Z</time>
      </trkpt>
      <trkpt lat="46.10075" lon="6.44991">
        <ele>1413.994995</ele>
        <time>2015-05-25T09:48:29Z</time>
      </trkpt>
      <trkpt lat="46.10014" lon="6.44984">
        <ele>1421.400269</ele>
        <time>2015-05-25T09:49:33Z</time>
      </trkpt>
      <trkpt lat="46.10006" lon="6.4498">
        <ele>1418.72876</ele>
        <time>2015-05-25T09:49:49Z</time>
      </trkpt>
      <trkpt lat="46.10002" lon="6.44974">
        <ele>1417.821167</ele>
        <time>2015-05-25T09:50:24Z</time>
      </trkpt>
      <trkpt lat="46.09997" lon="6.44973">
        <ele>1415.146729</ele>
        <time>2015-05-25T09:50:57Z</time>
      </trkpt>
      <trkpt lat="46.09989" lon="6.44974">
        <ele>1417.57019</ele>
        <time>2015-05-25T09:51:05Z</time>
      </trkpt>
      <trkpt lat="46.09982" lon="6.44972">
        <ele>1415.985229</ele>
        <time>2015-05-25T09:51:13Z</time>
      </trkpt>
      <trkpt lat="46.09974" lon="6.44975">
        <ele>1416.807983</ele>
        <time>2015-05-25T09:51:21Z</time>
      </trkpt>
      <trkpt lat="46.09964" lon="6.44974">
        <ele>1419.780273</ele>
        <time>2015-05-25T09:51:33Z</time>
      </trkpt>
      <trkpt lat="46.0996" lon="6.44977">
        <ele>1421.164551</ele>
        <time>2015-05-25T09:51:37Z</time>
      </trkpt>
      <trkpt lat="46.0996" lon="6.44986">
        <ele>1421.939575</ele>
        <time>2015-05-25T09:51:45Z</time>
      </trkpt>
      <trkpt lat="46.09967" lon="6.44999">
        <ele>1424.043823</ele>
        <time>2015-05-25T09:52:01Z</time>
      </trkpt>
      <trkpt lat="46.09986" lon="6.45014">
        <ele>1429.96228</ele>
        <time>2015-05-25T09:52:25Z</time>
      </trkpt>
      <trkpt lat="46.09995" lon="6.45029">
        <ele>1432.875244</ele>
        <time>2015-05-25T09:52:41Z</time>
      </trkpt>
      <trkpt lat="46.10014" lon="6.45047">
        <ele>1445.412598</ele>
        <time>2015-05-25T09:53:05Z</time>
      </trkpt>
      <trkpt lat="46.1002" lon="6.45057">
        <ele>1446.400024</ele>
        <time>2015-05-25T09:53:17Z</time>
      </trkpt>
      <trkpt lat="46.10021" lon="6.45064">
        <ele>1448.552124</ele>
        <time>2015-05-25T09:53:25Z</time>
      </trkpt>
      <trkpt lat="46.10025" lon="6.4507">
        <ele>1448.762817</ele>
        <time>2015-05-25T09:53:33Z</time>
      </trkpt>
      <trkpt lat="46.10035" lon="6.45077">
        <ele>1456.810303</ele>
        <time>2015-05-25T09:53:49Z</time>
      </trkpt>
      <trkpt lat="46.10059" lon="6.45117">
        <ele>1465.174561</ele>
        <time>2015-05-25T09:54:37Z</time>
      </trkpt>
      <trkpt lat="46.10066" lon="6.45136">
        <ele>1465.625732</ele>
        <time>2015-05-25T09:55:01Z</time>
      </trkpt>
      <trkpt lat="46.10074" lon="6.45144">
        <ele>1468.84729</ele>
        <time>2015-05-25T09:55:17Z</time>
      </trkpt>
      <trkpt lat="46.10074" lon="6.45149">
        <ele>1466.684814</ele>
        <time>2015-05-25T09:55:25Z</time>
      </trkpt>
      <trkpt lat="46.10081" lon="6.45156">
        <ele>1472.779175</ele>
        <time>2015-05-25T09:55:33Z</time>
      </trkpt>
      <trkpt lat="46.10087" lon="6.45171">
        <ele>1472.574219</ele>
        <time>2015-05-25T09:55:49Z</time>
      </trkpt>
      <trkpt lat="46.10093" lon="6.45178">
        <ele>1477.729126</ele>
        <time>2015-05-25T09:55:57Z</time>
      </trkpt>
      <trkpt lat="46.10098" lon="6.45188">
        <ele>1476.556274</ele>
        <time>2015-05-25T09:56:05Z</time>
      </trkpt>
      <trkpt lat="46.10098" lon="6.45192">
        <ele>1475.040405</ele>
        <time>2015-05-25T09:56:09Z</time>
      </trkpt>
      <trkpt lat="46.10096" lon="6.45196">
        <ele>1474.24231</ele>
        <time>2015-05-25T09:56:13Z</time>
      </trkpt>
      <trkpt lat="46.10093" lon="6.45197">
        <ele>1471.619019</ele>
        <time>2015-05-25T09:56:17Z</time>
      </trkpt>
      <trkpt lat="46.10034" lon="6.45174">
        <ele>1486.633179</ele>
        <time>2015-05-25T09:57:21Z</time>
      </trkpt>
      <trkpt lat="46.10023" lon="6.45172">
        <ele>1486.106323</ele>
        <time>2015-05-25T09:57:37Z</time>
      </trkpt>
      <trkpt lat="46.09989" lon="6.45154">
        <ele>1491.787598</ele>
        <time>2015-05-25T09:58:25Z</time>
      </trkpt>
      <trkpt lat="46.09976" lon="6.45153">
        <ele>1493.580444</ele>
        <time>2015-05-25T09:58:41Z</time>
      </trkpt>
      <trkpt lat="46.09969" lon="6.4515">
        <ele>1494.539307</ele>
        <time>2015-05-25T09:58:49Z</time>
      </trkpt>
      <trkpt lat="46.09925" lon="6.45154">
        <ele>1507.484131</ele>
        <time>2015-05-25T09:59:37Z</time>
      </trkpt>
      <trkpt lat="46.099" lon="6.45153">
        <ele>1513.036621</ele>
        <time>2015-05-25T10:00:09Z</time>
      </trkpt>
      <trkpt lat="46.09888" lon="6.45145">
        <ele>1516.873047</ele>
        <time>2015-05-25T10:00:25Z</time>
      </trkpt>
      <trkpt lat="46.0988" lon="6.45144">
        <ele>1518.700195</ele>
        <time>2015-05-25T10:00:33Z</time>
      </trkpt>
      <trkpt lat="46.09874" lon="6.45148">
        <ele>1516.684082</ele>
        <time>2015-05-25T10:00:41Z</time>
      </trkpt>
      <trkpt lat="46.09871" lon="6.45157">
        <ele>1517.106445</ele>
        <time>2015-05-25T10:00:49Z</time>
      </trkpt>
      <trkpt lat="46.09871" lon="6.45165">
        <ele>1516.350098</ele>
        <time>2015-05-25T10:00:57Z</time>
      </trkpt>
      <trkpt lat="46.09875" lon="6.45174">
        <ele>1519.759766</ele>
        <time>2015-05-25T10:01:05Z</time>
      </trkpt>
      <trkpt lat="46.09882" lon="6.45179">
        <ele>1522.60083</ele>
        <time>2015-05-25T10:01:13Z</time>
      </trkpt>
      <trkpt lat="46.09908" lon="6.45193">
        <ele>1525.487793</ele>
        <time>2015-05-25T10:01:45Z</time>
      </trkpt>
      <trkpt lat="46.09932" lon="6.45219">
        <ele>1527.745117</ele>
        <time>2015-05-25T10:02:17Z</time>
      </trkpt>
      <trkpt lat="46.09939" lon="6.45229">
        <ele>1529.619629</ele>
        <time>2015-05-25T10:02:25Z</time>
      </trkpt>
      <trkpt lat="46.09947" lon="6.45256">
        <ele>1532.349121</ele>
        <time>2015-05-25T10:02:45Z</time>
      </trkpt>
      <trkpt lat="46.09945" lon="6.45258">
        <ele>1529.678223</ele>
        <time>2015-05-25T10:02:49Z</time>
      </trkpt>
      <trkpt lat="46.09947" lon="6.45246">
        <ele>1535.380859</ele>
        <time>2015-05-25T10:03:01Z</time>
      </trkpt>
      <trkpt lat="46.09948" lon="6.45248">
        <ele>1535.297852</ele>
        <time>2015-05-25T10:03:09Z</time>
      </trkpt>
      <trkpt lat="46.09946" lon="6.45247">
        <ele>1525.446146</ele>
        <time>2015-05-25T10:03:44Z</time>
      </trkpt>
      <trkpt lat="46.09948" lon="6.45251">
        <ele>1535.741792</ele>
        <time>2015-05-25T10:04:29Z</time>
      </trkpt>
      <trkpt lat="46.09951" lon="6.45251">
        <ele>1535.623204</ele>
        <time>2015-05-25T10:05:03Z</time>
      </trkpt>
      <trkpt lat="46.09948" lon="6.45254">
        <ele>1535.954778</ele>
        <time>2015-05-25T10:05:19Z</time>
      </trkpt>
      <trkpt lat="46.09948" lon="6.45248">
        <ele>1533.667969</ele>
        <time>2015-05-25T10:05:23Z</time>
      </trkpt>
      <trkpt lat="46.0995" lon="6.45246">
        <ele>1532.458008</ele>
        <time>2015-05-25T10:05:27Z</time>
      </trkpt>
      <trkpt lat="46.09948" lon="6.45246">
        <ele>1532.348389</ele>
        <time>2015-05-25T10:05:43Z</time>
      </trkpt>
      <trkpt lat="46.0995" lon="6.45243">
        <ele>1531.196045</ele>
        <time>2015-05-25T10:05:51Z</time>
      </trkpt>
      <trkpt lat="46.09941" lon="6.4524">
        <ele>1533.874276</ele>
        <time>2015-05-25T10:06:40Z</time>
      </trkpt>
      <trkpt lat="46.09946" lon="6.45243">
        <ele>1533.735831</ele>
        <time>2015-05-25T10:06:48Z</time>
      </trkpt>
      <trkpt lat="46.09949" lon="6.45242">
        <ele>1533.788669</ele>
        <time>2015-05-25T10:07:03Z</time>
      </trkpt>
      <trkpt lat="46.09952" lon="6.45244">
        <ele>1534.099328</ele>
        <time>2015-05-25T10:07:16Z</time>
      </trkpt>
      <trkpt lat="46.09955" lon="6.45243">
        <ele>1534.687683</ele>
        <time>2015-05-25T10:07:20Z</time>
      </trkpt>
      <trkpt lat="46.09958" lon="6.45245">
        <ele>1535.132276</ele>
        <time>2015-05-25T10:07:32Z</time>
      </trkpt>
      <trkpt lat="46.09953" lon="6.45247">
        <ele>1534.948434</ele>
        <time>2015-05-25T10:08:10Z</time>
      </trkpt>
      <trkpt lat="46.09947" lon="6.45254">
        <ele>1535.261673</ele>
        <time>2015-05-25T10:08:26Z</time>
      </trkpt>
      <trkpt lat="46.09951" lon="6.45255">
        <ele>1535.957481</ele>
        <time>2015-05-25T10:08:30Z</time>
      </trkpt>
      <trkpt lat="46.09966" lon="6.45247">
        <ele>1536.67666</ele>
        <time>2015-05-25T10:08:42Z</time>
      </trkpt>
      <trkpt lat="46.10001" lon="6.45277">
        <ele>1535.351077</ele>
        <time>2015-05-25T10:09:14Z</time>
      </trkpt>
      <trkpt lat="46.1001" lon="6.45296">
        <ele>1535.372437</ele>
        <time>2015-05-25T10:09:26Z</time>
      </trkpt>
      <trkpt lat="46.10012" lon="6.45305">
        <ele>1535.440815</ele>
        <time>2015-05-25T10:09:30Z</time>
      </trkpt>
      <trkpt lat="46.10036" lon="6.45353">
        <ele>1532.657882</ele>
        <time>2015-05-25T10:10:02Z</time>
      </trkpt>
      <trkpt lat="46.1005" lon="6.45372">
        <ele>1532.725451</ele>
        <time>2015-05-25T10:10:18Z</time>
      </trkpt>
      <trkpt lat="46.10065" lon="6.45419">
        <ele>1532.875977</ele>
        <time>2015-05-25T10:10:50Z</time>
      </trkpt>
      <trkpt lat="46.10073" lon="6.4546">
        <ele>1543.800293</ele>
        <time>2015-05-25T10:11:26Z</time>
      </trkpt>
      <trkpt lat="46.10075" lon="6.45446">
        <ele>1545.501953</ele>
        <time>2015-05-25T10:11:34Z</time>
      </trkpt>
      <trkpt lat="46.10073" lon="6.45437">
        <ele>1543.468994</ele>
        <time>2015-05-25T10:11:42Z</time>
      </trkpt>
      <trkpt lat="46.10073" lon="6.45439">
        <ele>1542.54541</ele>
        <time>2015-05-25T10:11:58Z</time>
      </trkpt>
      <trkpt lat="46.10071" lon="6.45438">
        <ele>1542.089844</ele>
        <time>2015-05-25T10:12:21Z</time>
      </trkpt>
      <trkpt lat="46.10071" lon="6.45457">
        <ele>1542.525391</ele>
        <time>2015-05-25T10:13:01Z</time>
      </trkpt>
      <trkpt lat="46.10064" lon="6.45487">
        <ele>1539.998047</ele>
        <time>2015-05-25T10:13:17Z</time>
      </trkpt>
      <trkpt lat="46.10063" lon="6.45536">
        <ele>1537.961914</ele>
        <time>2015-05-25T10:13:45Z</time>
      </trkpt>
      <trkpt lat="46.10068" lon="6.45554">
        <ele>1536.947266</ele>
        <time>2015-05-25T10:13:57Z</time>
      </trkpt>
      <trkpt lat="46.10065" lon="6.4556">
        <ele>1531.713623</ele>
        <time>2015-05-25T10:14:01Z</time>
      </trkpt>
      <trkpt lat="46.10071" lon="6.45598">
        <ele>1539.516602</ele>
        <time>2015-05-25T10:14:25Z</time>
      </trkpt>
      <trkpt lat="46.10061" lon="6.45646">
        <ele>1543.05826</ele>
        <time>2015-05-25T10:14:57Z</time>
      </trkpt>
      <trkpt lat="46.10058" lon="6.45702">
        <ele>1543.624899</ele>
        <time>2015-05-25T10:15:29Z</time>
      </trkpt>
      <trkpt lat="46.10062" lon="6.45782">
        <ele>1546.669652</ele>
        <time>2015-05-25T10:16:13Z</time>
      </trkpt>
      <trkpt lat="46.10059" lon="6.45793">
        <ele>1547.421352</ele>
        <time>2015-05-25T10:16:19Z</time>
      </trkpt>
      <trkpt lat="46.10063" lon="6.45798">
        <ele>1548.064956</ele>
        <time>2015-05-25T10:16:23Z</time>
      </trkpt>
      <trkpt lat="46.10062" lon="6.45808">
        <ele>1551.126128</ele>
        <time>2015-05-25T10:16:31Z</time>
      </trkpt>
      <trkpt lat="46.1006" lon="6.4581">
        <ele>1551.555058</ele>
        <time>2015-05-25T10:16:39Z</time>
      </trkpt>
      <trkpt lat="46.1005" lon="6.4586">
        <ele>1554.558924</ele>
        <time>2015-05-25T10:17:11Z</time>
      </trkpt>
      <trkpt lat="46.10045" lon="6.45873">
        <ele>1554.593135</ele>
        <time>2015-05-25T10:17:19Z</time>
      </trkpt>
      <trkpt lat="46.10047" lon="6.45884">
        <ele>1555.986754</ele>
        <time>2015-05-25T10:17:27Z</time>
      </trkpt>
      <trkpt lat="46.10047" lon="6.4591">
        <ele>1556.182729</ele>
        <time>2015-05-25T10:17:43Z</time>
      </trkpt>
      <trkpt lat="46.10045" lon="6.45936">
        <ele>1551.168457</ele>
        <time>2015-05-25T10:17:59Z</time>
      </trkpt>
      <trkpt lat="46.10045" lon="6.4595">
        <ele>1550.246094</ele>
        <time>2015-05-25T10:18:07Z</time>
      </trkpt>
      <trkpt lat="46.10051" lon="6.45975">
        <ele>1554.36499</ele>
        <time>2015-05-25T10:18:23Z</time>
      </trkpt>
      <trkpt lat="46.10051" lon="6.4599">
        <ele>1555.191895</ele>
        <time>2015-05-25T10:18:35Z</time>
      </trkpt>
      <trkpt lat="46.10046" lon="6.46005">
        <ele>1557.381348</ele>
        <time>2015-05-25T10:18:43Z</time>
      </trkpt>
      <trkpt lat="46.10045" lon="6.46019">
        <ele>1560.703613</ele>
        <time>2015-05-25T10:18:51Z</time>
      </trkpt>
      <trkpt lat="46.10037" lon="6.46029">
        <ele>1558.035156</ele>
        <time>2015-05-25T10:19:03Z</time>
      </trkpt>
      <trkpt lat="46.1003" lon="6.46053">
        <ele>1565.988281</ele>
        <time>2015-05-25T10:19:19Z</time>
      </trkpt>
      <trkpt lat="46.10029" lon="6.46063">
        <ele>1571.598877</ele>
        <time>2015-05-25T10:19:27Z</time>
      </trkpt>
      <trkpt lat="46.10024" lon="6.46071">
        <ele>1573.105957</ele>
        <time>2015-05-25T10:19:35Z</time>
      </trkpt>
      <trkpt lat="46.10026" lon="6.46089">
        <ele>1574.953857</ele>
        <time>2015-05-25T10:19:43Z</time>
      </trkpt>
      <trkpt lat="46.10023" lon="6.46103">
        <ele>1574.86084</ele>
        <time>2015-05-25T10:19:55Z</time>
      </trkpt>
      <trkpt lat="46.10024" lon="6.46125">
        <ele>1571.689941</ele>
        <time>2015-05-25T10:20:11Z</time>
      </trkpt>
      <trkpt lat="46.10017" lon="6.4615">
        <ele>1572.571777</ele>
        <time>2015-05-25T10:20:27Z</time>
      </trkpt>
      <trkpt lat="46.1002" lon="6.46167">
        <ele>1569.111328</ele>
        <time>2015-05-25T10:20:39Z</time>
      </trkpt>
      <trkpt lat="46.10017" lon="6.46186">
        <ele>1568.666748</ele>
        <time>2015-05-25T10:20:47Z</time>
      </trkpt>
      <trkpt lat="46.10018" lon="6.46204">
        <ele>1563.867188</ele>
        <time>2015-05-25T10:20:59Z</time>
      </trkpt>
      <trkpt lat="46.10028" lon="6.46225">
        <ele>1569.786133</ele>
        <time>2015-05-25T10:21:15Z</time>
      </trkpt>
      <trkpt lat="46.10031" lon="6.46247">
        <ele>1566.594727</ele>
        <time>2015-05-25T10:21:31Z</time>
      </trkpt>
      <trkpt lat="46.10029" lon="6.46254">
        <ele>1567.520508</ele>
        <time>2015-05-25T10:21:35Z</time>
      </trkpt>
      <trkpt lat="46.10036" lon="6.4628">
        <ele>1572.804688</ele>
        <time>2015-05-25T10:21:51Z</time>
      </trkpt>
      <trkpt lat="46.10039" lon="6.46354">
        <ele>1577.754883</ele>
        <time>2015-05-25T10:22:35Z</time>
      </trkpt>
      <trkpt lat="46.10037" lon="6.4637">
        <ele>1578.573486</ele>
        <time>2015-05-25T10:22:43Z</time>
      </trkpt>
      <trkpt lat="46.10038" lon="6.46382">
        <ele>1578.1604</ele>
        <time>2015-05-25T10:22:51Z</time>
      </trkpt>
      <trkpt lat="46.10044" lon="6.46409">
        <ele>1582.362793</ele>
        <time>2015-05-25T10:23:07Z</time>
      </trkpt>
      <trkpt lat="46.10062" lon="6.46433">
        <ele>1591.06377</ele>
        <time>2015-05-25T10:23:56Z</time>
      </trkpt>
      <trkpt lat="46.1006" lon="6.46426">
        <ele>1592.20752</ele>
        <time>2015-05-25T10:24:13Z</time>
      </trkpt>
      <trkpt lat="46.10058" lon="6.46427">
        <ele>1590.632812</ele>
        <time>2015-05-25T10:24:29Z</time>
      </trkpt>
      <trkpt lat="46.10057" lon="6.46425">
        <ele>1590.487793</ele>
        <time>2015-05-25T10:24:37Z</time>
      </trkpt>
      <trkpt lat="46.10058" lon="6.46428">
        <ele>1591.277676</ele>
        <time>2015-05-25T10:25:40Z</time>
      </trkpt>
      <trkpt lat="46.10058" lon="6.46426">
        <ele>1590.762884</ele>
        <time>2015-05-25T10:26:40Z</time>
      </trkpt>
      <trkpt lat="46.10051" lon="6.46419">
        <ele>1589.73404</ele>
        <time>2015-05-25T10:27:35Z</time>
      </trkpt>
      <trkpt lat="46.10052" lon="6.46418">
        <ele>1588.525641</ele>
        <time>2015-05-25T10:28:45Z</time>
      </trkpt>
      <trkpt lat="46.10061" lon="6.46432">
        <ele>1590.591185</ele>
        <time>2015-05-25T10:29:01Z</time>
      </trkpt>
      <trkpt lat="46.10058" lon="6.46436">
        <ele>1590.270662</ele>
        <time>2015-05-25T10:29:05Z</time>
      </trkpt>
      <trkpt lat="46.10058" lon="6.46439">
        <ele>1589.530776</ele>
        <time>2015-05-25T10:29:09Z</time>
      </trkpt>
      <trkpt lat="46.10054" lon="6.46441">
        <ele>1590.426425</ele>
        <time>2015-05-25T10:29:18Z</time>
      </trkpt>
      <trkpt lat="46.10056" lon="6.46444">
        <ele>1590.644429</ele>
        <time>2015-05-25T10:29:22Z</time>
      </trkpt>
      <trkpt lat="46.10057" lon="6.46437">
        <ele>1590.268419</ele>
        <time>2015-05-25T10:29:26Z</time>
      </trkpt>
      <trkpt lat="46.10063" lon="6.4643">
        <ele>1592.564453</ele>
        <time>2015-05-25T10:29:34Z</time>
      </trkpt>
      <trkpt lat="46.10063" lon="6.46426">
        <ele>1591.606445</ele>
        <time>2015-05-25T10:29:38Z</time>
      </trkpt>
      <trkpt lat="46.10064" lon="6.46423">
        <ele>1591.961483</ele>
        <time>2015-05-25T10:30:12Z</time>
      </trkpt>
      <trkpt lat="46.10062" lon="6.46423">
        <ele>1593.838379</ele>
        <time>2015-05-25T10:33:23Z</time>
      </trkpt>
      <trkpt lat="46.10061" lon="6.46426">
        <ele>1593.481934</ele>
        <time>2015-05-25T10:36:44Z</time>
      </trkpt>
      <trkpt lat="46.10063" lon="6.46426">
        <ele>1592.3615</ele>
        <time>2015-05-25T10:54:19Z</time>
      </trkpt>
      <trkpt lat="46.10063" lon="6.46427">
        <ele>1590.774658</ele>
        <time>2015-05-25T10:55:07Z</time>
      </trkpt>
      <trkpt lat="46.10063" lon="6.46424">
        <ele>1590.895508</ele>
        <time>2015-05-25T10:56:52Z</time>
      </trkpt>
      <trkpt lat="46.10064" lon="6.46427">
        <ele>1591.107178</ele>
        <time>2015-05-25T10:58:11Z</time>
      </trkpt>
      <trkpt lat="46.10069" lon="6.46414">
        <ele>1592.109277</ele>
        <time>2015-05-25T10:58:50Z</time>
      </trkpt>
      <trkpt lat="46.10066" lon="6.46406">
        <ele>1592.644959</ele>
        <time>2015-05-25T10:58:58Z</time>
      </trkpt>
      <trkpt lat="46.10075" lon="6.46373">
        <ele>1596.530425</ele>
        <time>2015-05-25T10:59:27Z</time>
      </trkpt>
      <trkpt lat="46.10078" lon="6.46371">
        <ele>1596.940531</ele>
        <time>2015-05-25T10:59:31Z</time>
      </trkpt>
      <trkpt lat="46.10083" lon="6.46354">
        <ele>1598.576727</ele>
        <time>2015-05-25T10:59:47Z</time>
      </trkpt>
      <trkpt lat="46.10091" lon="6.46341">
        <ele>1599.301775</ele>
        <time>2015-05-25T11:00:03Z</time>
      </trkpt>
      <trkpt lat="46.10099" lon="6.46317">
        <ele>1601.445007</ele>
        <time>2015-05-25T11:00:19Z</time>
      </trkpt>
      <trkpt lat="46.10104" lon="6.46282">
        <ele>1608.85891</ele>
        <time>2015-05-25T11:00:51Z</time>
      </trkpt>
      <trkpt lat="46.10109" lon="6.46274">
        <ele>1611.77613</ele>
        <time>2015-05-25T11:01:03Z</time>
      </trkpt>
      <trkpt lat="46.10112" lon="6.46274">
        <ele>1614.016624</ele>
        <time>2015-05-25T11:01:11Z</time>
      </trkpt>
      <trkpt lat="46.10116" lon="6.46268">
        <ele>1617.188383</ele>
        <time>2015-05-25T11:01:27Z</time>
      </trkpt>
      <trkpt lat="46.10118" lon="6.46251">
        <ele>1620.304963</ele>
        <time>2015-05-25T11:01:43Z</time>
      </trkpt>
      <trkpt lat="46.10119" lon="6.46234">
        <ele>1624.110999</ele>
        <time>2015-05-25T11:01:59Z</time>
      </trkpt>
      <trkpt lat="46.10122" lon="6.46206">
        <ele>1630.669128</ele>
        <time>2015-05-25T11:02:31Z</time>
      </trkpt>
      <trkpt lat="46.10121" lon="6.46201">
        <ele>1632.429632</ele>
        <time>2015-05-25T11:02:39Z</time>
      </trkpt>
      <trkpt lat="46.10124" lon="6.46185">
        <ele>1639.249926</ele>
        <time>2015-05-25T11:03:03Z</time>
      </trkpt>
      <trkpt lat="46.10127" lon="6.46182">
        <ele>1641.272214</ele>
        <time>2015-05-25T11:03:11Z</time>
      </trkpt>
      <trkpt lat="46.10135" lon="6.46155">
        <ele>1652.869009</ele>
        <time>2015-05-25T11:03:59Z</time>
      </trkpt>
      <trkpt lat="46.10139" lon="6.46152">
        <ele>1654.55882</ele>
        <time>2015-05-25T11:04:07Z</time>
      </trkpt>
      <trkpt lat="46.10149" lon="6.46122">
        <ele>1663.251887</ele>
        <time>2015-05-25T11:04:48Z</time>
      </trkpt>
      <trkpt lat="46.10168" lon="6.46106">
        <ele>1668.203433</ele>
        <time>2015-05-25T11:05:20Z</time>
      </trkpt>
      <trkpt lat="46.10182" lon="6.46086">
        <ele>1675.757324</ele>
        <time>2015-05-25T11:05:52Z</time>
      </trkpt>
      <trkpt lat="46.10197" lon="6.46073">
        <ele>1681.626221</ele>
        <time>2015-05-25T11:06:24Z</time>
      </trkpt>
      <trkpt lat="46.10207" lon="6.4606">
        <ele>1686.364502</ele>
        <time>2015-05-25T11:06:48Z</time>
      </trkpt>
      <trkpt lat="46.10216" lon="6.46063">
        <ele>1689.747559</ele>
        <time>2015-05-25T11:07:04Z</time>
      </trkpt>
      <trkpt lat="46.10223" lon="6.46054">
        <ele>1693.942383</ele>
        <time>2015-05-25T11:07:20Z</time>
      </trkpt>
      <trkpt lat="46.10233" lon="6.46032">
        <ele>1703.387207</ele>
        <time>2015-05-25T11:07:52Z</time>
      </trkpt>
      <trkpt lat="46.10242" lon="6.46032">
        <ele>1705.021973</ele>
        <time>2015-05-25T11:08:12Z</time>
      </trkpt>
      <trkpt lat="46.10242" lon="6.46015">
        <ele>1709.777832</ele>
        <time>2015-05-25T11:08:32Z</time>
      </trkpt>
      <trkpt lat="46.10245" lon="6.46015">
        <ele>1710.834473</ele>
        <time>2015-05-25T11:08:40Z</time>
      </trkpt>
      <trkpt lat="46.10245" lon="6.46007">
        <ele>1711.784288</ele>
        <time>2015-05-25T11:08:52Z</time>
      </trkpt>
      <trkpt lat="46.10249" lon="6.46009">
        <ele>1714.069503</ele>
        <time>2015-05-25T11:09:00Z</time>
      </trkpt>
      <trkpt lat="46.10252" lon="6.46007">
        <ele>1715.74654</ele>
        <time>2015-05-25T11:09:08Z</time>
      </trkpt>
      <trkpt lat="46.10252" lon="6.46">
        <ele>1717.587841</ele>
        <time>2015-05-25T11:09:16Z</time>
      </trkpt>
      <trkpt lat="46.10253" lon="6.45996">
        <ele>1717.787238</ele>
        <time>2015-05-25T11:09:20Z</time>
      </trkpt>
      <trkpt lat="46.10253" lon="6.45989">
        <ele>1721.199411</ele>
        <time>2015-05-25T11:09:37Z</time>
      </trkpt>
      <trkpt lat="46.10255" lon="6.45986">
        <ele>1723.221012</ele>
        <time>2015-05-25T11:09:46Z</time>
      </trkpt>
      <trkpt lat="46.10259" lon="6.45989">
        <ele>1725.510274</ele>
        <time>2015-05-25T11:09:54Z</time>
      </trkpt>
      <trkpt lat="46.10261" lon="6.45988">
        <ele>1727.727134</ele>
        <time>2015-05-25T11:10:05Z</time>
      </trkpt>
      <trkpt lat="46.10264" lon="6.4599">
        <ele>1728.508252</ele>
        <time>2015-05-25T11:10:13Z</time>
      </trkpt>
      <trkpt lat="46.10265" lon="6.45983">
        <ele>1730.674635</ele>
        <time>2015-05-25T11:10:24Z</time>
      </trkpt>
      <trkpt lat="46.10267" lon="6.45981">
        <ele>1730.457031</ele>
        <time>2015-05-25T11:10:32Z</time>
      </trkpt>
      <trkpt lat="46.10269" lon="6.45969">
        <ele>1738.004395</ele>
        <time>2015-05-25T11:10:56Z</time>
      </trkpt>
      <trkpt lat="46.10272" lon="6.45972">
        <ele>1738.300293</ele>
        <time>2015-05-25T11:11:04Z</time>
      </trkpt>
      <trkpt lat="46.10274" lon="6.45969">
        <ele>1739.914062</ele>
        <time>2015-05-25T11:11:12Z</time>
      </trkpt>
      <trkpt lat="46.10273" lon="6.45959">
        <ele>1744.24707</ele>
        <time>2015-05-25T11:11:24Z</time>
      </trkpt>
      <trkpt lat="46.10273" lon="6.45956">
        <ele>1745.394287</ele>
        <time>2015-05-25T11:11:28Z</time>
      </trkpt>
      <trkpt lat="46.10277" lon="6.45956">
        <ele>1747.04541</ele>
        <time>2015-05-25T11:11:36Z</time>
      </trkpt>
      <trkpt lat="46.10282" lon="6.45946">
        <ele>1751.852051</ele>
        <time>2015-05-25T11:12:00Z</time>
      </trkpt>
      <trkpt lat="46.10284" lon="6.45946">
        <ele>1752.748535</ele>
        <time>2015-05-25T11:12:08Z</time>
      </trkpt>
      <trkpt lat="46.10286" lon="6.45943">
        <ele>1754.196777</ele>
        <time>2015-05-25T11:12:16Z</time>
      </trkpt>
      <trkpt lat="46.10287" lon="6.45945">
        <ele>1754.335449</ele>
        <time>2015-05-25T11:12:20Z</time>
      </trkpt>
      <trkpt lat="46.10291" lon="6.45944">
        <ele>1755.76123</ele>
        <time>2015-05-25T11:12:28Z</time>
      </trkpt>
      <trkpt lat="46.10301" lon="6.45922">
        <ele>1766.141113</ele>
        <time>2015-05-25T11:13:16Z</time>
      </trkpt>
      <trkpt lat="46.10304" lon="6.45921">
        <ele>1767.662109</ele>
        <time>2015-05-25T11:13:24Z</time>
      </trkpt>
      <trkpt lat="46.10305" lon="6.45915">
        <ele>1769.178223</ele>
        <time>2015-05-25T11:13:32Z</time>
      </trkpt>
      <trkpt lat="46.10309" lon="6.45917">
        <ele>1769.423096</ele>
        <time>2015-05-25T11:13:40Z</time>
      </trkpt>
      <trkpt lat="46.1031" lon="6.45912">
        <ele>1770.83252</ele>
        <time>2015-05-25T11:13:48Z</time>
      </trkpt>
      <trkpt lat="46.10321" lon="6.45895">
        <ele>1781.53125</ele>
        <time>2015-05-25T11:14:28Z</time>
      </trkpt>
      <trkpt lat="46.10325" lon="6.45899">
        <ele>1781.940918</ele>
        <time>2015-05-25T11:14:36Z</time>
      </trkpt>
      <trkpt lat="46.10327" lon="6.45891">
        <ele>1784.995361</ele>
        <time>2015-05-25T11:14:52Z</time>
      </trkpt>
      <trkpt lat="46.10337" lon="6.45881">
        <ele>1791.712402</ele>
        <time>2015-05-25T11:15:24Z</time>
      </trkpt>
      <trkpt lat="46.1034" lon="6.45886">
        <ele>1793.673828</ele>
        <time>2015-05-25T11:15:57Z</time>
      </trkpt>
      <trkpt lat="46.10367" lon="6.45874">
        <ele>1801.383385</ele>
        <time>2015-05-25T11:17:56Z</time>
      </trkpt>
      <trkpt lat="46.10385" lon="6.45872">
        <ele>1810.267923</ele>
        <time>2015-05-25T11:18:36Z</time>
      </trkpt>
      <trkpt lat="46.10385" lon="6.45874">
        <ele>1811.086305</ele>
        <time>2015-05-25T11:18:40Z</time>
      </trkpt>
      <trkpt lat="46.104" lon="6.45867">
        <ele>1819.000975</ele>
        <time>2015-05-25T11:19:24Z</time>
      </trkpt>
      <trkpt lat="46.10407" lon="6.45868">
        <ele>1821.574029</ele>
        <time>2015-05-25T11:19:37Z</time>
      </trkpt>
      <trkpt lat="46.10415" lon="6.45862">
        <ele>1825.586281</ele>
        <time>2015-05-25T11:19:53Z</time>
      </trkpt>
      <trkpt lat="46.10428" lon="6.45857">
        <ele>1829.903809</ele>
        <time>2015-05-25T11:20:21Z</time>
      </trkpt>
      <trkpt lat="46.10433" lon="6.45858">
        <ele>1830.908936</ele>
        <time>2015-05-25T11:20:29Z</time>
      </trkpt>
      <trkpt lat="46.10451" lon="6.45849">
        <ele>1832.974609</ele>
        <time>2015-05-25T11:20:53Z</time>
      </trkpt>
      <trkpt lat="46.10453" lon="6.4584">
        <ele>1837.136865</ele>
        <time>2015-05-25T11:21:37Z</time>
      </trkpt>
      <trkpt lat="46.10469" lon="6.45827">
        <ele>1836.940596</ele>
        <time>2015-05-25T11:22:31Z</time>
      </trkpt>
      <trkpt lat="46.10475" lon="6.45826">
        <ele>1838.444123</ele>
        <time>2015-05-25T11:22:39Z</time>
      </trkpt>
      <trkpt lat="46.10504" lon="6.45808">
        <ele>1842.139185</ele>
        <time>2015-05-25T11:23:11Z</time>
      </trkpt>
      <trkpt lat="46.10511" lon="6.45805">
        <ele>1843.016584</ele>
        <time>2015-05-25T11:23:19Z</time>
      </trkpt>
      <trkpt lat="46.10532" lon="6.45783">
        <ele>1844.741193</ele>
        <time>2015-05-25T11:23:43Z</time>
      </trkpt>
      <trkpt lat="46.1054" lon="6.4578">
        <ele>1846.077148</ele>
        <time>2015-05-25T11:23:51Z</time>
      </trkpt>
      <trkpt lat="46.10544" lon="6.45775">
        <ele>1848.026939</ele>
        <time>2015-05-25T11:24:05Z</time>
      </trkpt>
      <trkpt lat="46.10577" lon="6.45756">
        <ele>1859.931565</ele>
        <time>2015-05-25T11:24:53Z</time>
      </trkpt>
      <trkpt lat="46.10579" lon="6.4576">
        <ele>1860.233679</ele>
        <time>2015-05-25T11:25:05Z</time>
      </trkpt>
      <trkpt lat="46.10576" lon="6.4576">
        <ele>1859.640299</ele>
        <time>2015-05-25T11:25:30Z</time>
      </trkpt>
      <trkpt lat="46.10576" lon="6.45755">
        <ele>1860.529297</ele>
        <time>2015-05-25T11:26:43Z</time>
      </trkpt>
      <trkpt lat="46.10575" lon="6.45755">
        <ele>1859.914307</ele>
        <time>2015-05-25T11:26:47Z</time>
      </trkpt>
      <trkpt lat="46.10573" lon="6.45761">
        <ele>1860.123047</ele>
        <time>2015-05-25T11:26:55Z</time>
      </trkpt>
      <trkpt lat="46.10561" lon="6.45767">
        <ele>1856.063477</ele>
        <time>2015-05-25T11:36:16Z</time>
      </trkpt>
      <trkpt lat="46.10554" lon="6.45772">
        <ele>1854.026123</ele>
        <time>2015-05-25T11:36:20Z</time>
      </trkpt>
      <trkpt lat="46.10539" lon="6.45781">
        <ele>1848.963867</ele>
        <time>2015-05-25T11:36:36Z</time>
      </trkpt>
      <trkpt lat="46.10549" lon="6.45772">
        <ele>1852.411621</ele>
        <time>2015-05-25T11:37:08Z</time>
      </trkpt>
      <trkpt lat="46.10576" lon="6.45762">
        <ele>1859.5625</ele>
        <time>2015-05-25T11:38:16Z</time>
      </trkpt>
      <trkpt lat="46.10576" lon="6.4576">
        <ele>1859.597656</ele>
        <time>2015-05-25T11:38:20Z</time>
      </trkpt>
      <trkpt lat="46.10578" lon="6.45758">
        <ele>1861.238037</ele>
        <time>2015-05-25T11:38:57Z</time>
      </trkpt>
      <trkpt lat="46.10579" lon="6.4576">
        <ele>1860.912109</ele>
        <time>2015-05-25T11:39:11Z</time>
      </trkpt>
      <trkpt lat="46.10578" lon="6.45758">
        <ele>1860.951172</ele>
        <time>2015-05-25T11:39:27Z</time>
      </trkpt>
      <trkpt lat="46.10578" lon="6.45751">
        <ele>1860.43942</ele>
        <time>2015-05-25T11:39:53Z</time>
      </trkpt>
      <trkpt lat="46.1058" lon="6.45751">
        <ele>1862.539062</ele>
        <time>2015-05-25T11:39:57Z</time>
      </trkpt>
      <trkpt lat="46.10576" lon="6.45755">
        <ele>1862.254395</ele>
        <time>2015-05-25T11:40:09Z</time>
      </trkpt>
      <trkpt lat="46.10578" lon="6.45757">
        <ele>1862.79834</ele>
        <time>2015-05-25T11:41:08Z</time>
      </trkpt>
      <trkpt lat="46.10577" lon="6.45755">
        <ele>1863.141113</ele>
        <time>2015-05-25T11:42:20Z</time>
      </trkpt>
      <trkpt lat="46.10579" lon="6.45754">
        <ele>1862.896973</ele>
        <time>2015-05-25T11:42:24Z</time>
      </trkpt>
      <trkpt lat="46.10579" lon="6.45757">
        <ele>1861.995605</ele>
        <time>2015-05-25T11:42:41Z</time>
      </trkpt>
      <trkpt lat="46.10575" lon="6.45757">
        <ele>1861.936035</ele>
        <time>2015-05-25T11:42:57Z</time>
      </trkpt>
      <trkpt lat="46.10579" lon="6.45758">
        <ele>1863.187988</ele>
        <time>2015-05-25T11:43:13Z</time>
      </trkpt>
      <trkpt lat="46.10582" lon="6.45753">
        <ele>1863.439209</ele>
        <time>2015-05-25T11:43:21Z</time>
      </trkpt>
      <trkpt lat="46.10579" lon="6.45758">
        <ele>1866.552734</ele>
        <time>2015-05-25T11:43:33Z</time>
      </trkpt>
      <trkpt lat="46.10583" lon="6.4575">
        <ele>1865.519531</ele>
        <time>2015-05-25T11:43:41Z</time>
      </trkpt>
      <trkpt lat="46.10584" lon="6.45733">
        <ele>1862.304688</ele>
        <time>2015-05-25T11:43:49Z</time>
      </trkpt>
      <trkpt lat="46.10596" lon="6.4568">
        <ele>1857.896484</ele>
        <time>2015-05-25T11:44:21Z</time>
      </trkpt>
      <trkpt lat="46.10597" lon="6.45666">
        <ele>1856.482178</ele>
        <time>2015-05-25T11:44:29Z</time>
      </trkpt>
      <trkpt lat="46.10603" lon="6.4564">
        <ele>1855.240234</ele>
        <time>2015-05-25T11:44:45Z</time>
      </trkpt>
      <trkpt lat="46.10609" lon="6.45585">
        <ele>1852.872559</ele>
        <time>2015-05-25T11:45:17Z</time>
      </trkpt>
      <trkpt lat="46.10617" lon="6.45567">
        <ele>1856.432861</ele>
        <time>2015-05-25T11:45:33Z</time>
      </trkpt>
      <trkpt lat="46.10621" lon="6.45561">
        <ele>1857.248535</ele>
        <time>2015-05-25T11:45:41Z</time>
      </trkpt>
      <trkpt lat="46.10645" lon="6.45496">
        <ele>1865.388184</ele>
        <time>2015-05-25T11:46:37Z</time>
      </trkpt>
      <trkpt lat="46.10657" lon="6.45484">
        <ele>1862.304688</ele>
        <time>2015-05-25T11:47:26Z</time>
      </trkpt>
      <trkpt lat="46.10664" lon="6.45474">
        <ele>1860.814453</ele>
        <time>2015-05-25T11:47:34Z</time>
      </trkpt>
      <trkpt lat="46.10667" lon="6.45473">
        <ele>1859.68042</ele>
        <time>2015-05-25T11:47:42Z</time>
      </trkpt>
      <trkpt lat="46.10669" lon="6.45469">
        <ele>1861.94261</ele>
        <time>2015-05-25T11:47:46Z</time>
      </trkpt>
      <trkpt lat="46.10666" lon="6.45463">
        <ele>1861.603183</ele>
        <time>2015-05-25T11:47:50Z</time>
      </trkpt>
      <trkpt lat="46.10673" lon="6.45435">
        <ele>1848.689453</ele>
        <time>2015-05-25T11:48:18Z</time>
      </trkpt>
      <trkpt lat="46.10671" lon="6.45423">
        <ele>1845.859863</ele>
        <time>2015-05-25T11:48:26Z</time>
      </trkpt>
      <trkpt lat="46.10672" lon="6.45403">
        <ele>1840.393066</ele>
        <time>2015-05-25T11:48:42Z</time>
      </trkpt>
      <trkpt lat="46.10669" lon="6.45391">
        <ele>1838.050781</ele>
        <time>2015-05-25T11:48:50Z</time>
      </trkpt>
      <trkpt lat="46.10665" lon="6.4538">
        <ele>1832.288086</ele>
        <time>2015-05-25T11:48:58Z</time>
      </trkpt>
      <trkpt lat="46.10665" lon="6.45359">
        <ele>1826.458984</ele>
        <time>2015-05-25T11:49:14Z</time>
      </trkpt>
      <trkpt lat="46.10658" lon="6.45314">
        <ele>1818.701659</ele>
        <time>2015-05-25T11:49:57Z</time>
      </trkpt>
      <trkpt lat="46.10651" lon="6.45291">
        <ele>1817.880423</ele>
        <time>2015-05-25T11:50:13Z</time>
      </trkpt>
      <trkpt lat="46.10651" lon="6.45278">
        <ele>1815.679061</ele>
        <time>2015-05-25T11:50:21Z</time>
      </trkpt>
      <trkpt lat="46.10638" lon="6.45227">
        <ele>1802.597168</ele>
        <time>2015-05-25T11:51:09Z</time>
      </trkpt>
      <trkpt lat="46.10638" lon="6.45221">
        <ele>1799.43457</ele>
        <time>2015-05-25T11:51:17Z</time>
      </trkpt>
      <trkpt lat="46.10634" lon="6.45217">
        <ele>1796.898926</ele>
        <time>2015-05-25T11:51:25Z</time>
      </trkpt>
      <trkpt lat="46.10632" lon="6.4521">
        <ele>1796.317871</ele>
        <time>2015-05-25T11:51:33Z</time>
      </trkpt>
      <trkpt lat="46.10616" lon="6.45179">
        <ele>1787.408691</ele>
        <time>2015-05-25T11:52:05Z</time>
      </trkpt>
      <trkpt lat="46.10619" lon="6.45171">
        <ele>1783.330078</ele>
        <time>2015-05-25T11:52:13Z</time>
      </trkpt>
      <trkpt lat="46.10621" lon="6.45167">
        <ele>1783.51416</ele>
        <time>2015-05-25T11:52:17Z</time>
      </trkpt>
      <trkpt lat="46.10623" lon="6.45168">
        <ele>1784.994873</ele>
        <time>2015-05-25T11:52:21Z</time>
      </trkpt>
      <trkpt lat="46.1063" lon="6.45158">
        <ele>1780.82666</ele>
        <time>2015-05-25T11:52:29Z</time>
      </trkpt>
      <trkpt lat="46.10644" lon="6.45149">
        <ele>1778.417969</ele>
        <time>2015-05-25T11:52:45Z</time>
      </trkpt>
      <trkpt lat="46.10645" lon="6.4515">
        <ele>1776.929199</ele>
        <time>2015-05-25T11:52:53Z</time>
      </trkpt>
      <trkpt lat="46.10642" lon="6.4515">
        <ele>1777.914551</ele>
        <time>2015-05-25T11:53:09Z</time>
      </trkpt>
      <trkpt lat="46.10642" lon="6.45147">
        <ele>1777.663818</ele>
        <time>2015-05-25T11:53:25Z</time>
      </trkpt>
      <trkpt lat="46.10649" lon="6.45142">
        <ele>1777.264404</ele>
        <time>2015-05-25T11:53:33Z</time>
      </trkpt>
      <trkpt lat="46.10673" lon="6.45136">
        <ele>1772.023438</ele>
        <time>2015-05-25T11:53:53Z</time>
      </trkpt>
      <trkpt lat="46.10676" lon="6.45133">
        <ele>1770.941162</ele>
        <time>2015-05-25T11:53:57Z</time>
      </trkpt>
      <trkpt lat="46.10682" lon="6.45133">
        <ele>1766.865234</ele>
        <time>2015-05-25T11:54:05Z</time>
      </trkpt>
      <trkpt lat="46.10684" lon="6.45128">
        <ele>1766.634277</ele>
        <time>2015-05-25T11:54:39Z</time>
      </trkpt>
      <trkpt lat="46.10693" lon="6.45125">
        <ele>1761.524414</ele>
        <time>2015-05-25T11:55:33Z</time>
      </trkpt>
      <trkpt lat="46.10697" lon="6.4512">
        <ele>1756.493164</ele>
        <time>2015-05-25T11:55:41Z</time>
      </trkpt>
      <trkpt lat="46.10697" lon="6.45115">
        <ele>1749.616699</ele>
        <time>2015-05-25T11:55:49Z</time>
      </trkpt>
      <trkpt lat="46.107" lon="6.4511">
        <ele>1747.702881</ele>
        <time>2015-05-25T11:55:53Z</time>
      </trkpt>
      <trkpt lat="46.10704" lon="6.45108">
        <ele>1747.60376</ele>
        <time>2015-05-25T11:55:57Z</time>
      </trkpt>
      <trkpt lat="46.10707" lon="6.45097">
        <ele>1743.886475</ele>
        <time>2015-05-25T11:56:05Z</time>
      </trkpt>
      <trkpt lat="46.10706" lon="6.45092">
        <ele>1741.177246</ele>
        <time>2015-05-25T11:56:13Z</time>
      </trkpt>
      <trkpt lat="46.10713" lon="6.45087">
        <ele>1740.944824</ele>
        <time>2015-05-25T11:56:21Z</time>
      </trkpt>
      <trkpt lat="46.10711" lon="6.45077">
        <ele>1739.458496</ele>
        <time>2015-05-25T11:56:29Z</time>
      </trkpt>
      <trkpt lat="46.10712" lon="6.4507">
        <ele>1739.999756</ele>
        <time>2015-05-25T11:56:33Z</time>
      </trkpt>
      <trkpt lat="46.10711" lon="6.45065">
        <ele>1738.88623</ele>
        <time>2015-05-25T11:56:41Z</time>
      </trkpt>
      <trkpt lat="46.10712" lon="6.45063">
        <ele>1738.881348</ele>
        <time>2015-05-25T11:56:45Z</time>
      </trkpt>
      <trkpt lat="46.10711" lon="6.45056">
        <ele>1736.999023</ele>
        <time>2015-05-25T11:56:49Z</time>
      </trkpt>
      <trkpt lat="46.10715" lon="6.45055">
        <ele>1734.754883</ele>
        <time>2015-05-25T11:56:53Z</time>
      </trkpt>
      <trkpt lat="46.10716" lon="6.45048">
        <ele>1731.555908</ele>
        <time>2015-05-25T11:56:59Z</time>
      </trkpt>
      <trkpt lat="46.10716" lon="6.45051">
        <ele>1730.427979</ele>
        <time>2015-05-25T11:57:17Z</time>
      </trkpt>
      <trkpt lat="46.10719" lon="6.4505">
        <ele>1726.312988</ele>
        <time>2015-05-25T11:57:32Z</time>
      </trkpt>
      <trkpt lat="46.1072" lon="6.45046">
        <ele>1723.499023</ele>
        <time>2015-05-25T11:57:36Z</time>
      </trkpt>
      <trkpt lat="46.10723" lon="6.45043">
        <ele>1721.231201</ele>
        <time>2015-05-25T11:57:40Z</time>
      </trkpt>
      <trkpt lat="46.10722" lon="6.45038">
        <ele>1720.793457</ele>
        <time>2015-05-25T11:57:44Z</time>
      </trkpt>
      <trkpt lat="46.10725" lon="6.45029">
        <ele>1717.288086</ele>
        <time>2015-05-25T11:57:52Z</time>
      </trkpt>
      <trkpt lat="46.10728" lon="6.45028">
        <ele>1714.576172</ele>
        <time>2015-05-25T11:57:56Z</time>
      </trkpt>
      <trkpt lat="46.10729" lon="6.45013">
        <ele>1713.594238</ele>
        <time>2015-05-25T11:58:08Z</time>
      </trkpt>
      <trkpt lat="46.10732" lon="6.45012">
        <ele>1711.507812</ele>
        <time>2015-05-25T11:58:12Z</time>
      </trkpt>
      <trkpt lat="46.10738" lon="6.45">
        <ele>1702.445801</ele>
        <time>2015-05-25T11:58:32Z</time>
      </trkpt>
      <trkpt lat="46.1074" lon="6.45001">
        <ele>1698.312744</ele>
        <time>2015-05-25T11:59:34Z</time>
      </trkpt>
      <trkpt lat="46.10745" lon="6.44996">
        <ele>1696.43457</ele>
        <time>2015-05-25T11:59:42Z</time>
      </trkpt>
      <trkpt lat="46.10747" lon="6.4498">
        <ele>1695.075851</ele>
        <time>2015-05-25T11:59:54Z</time>
      </trkpt>
      <trkpt lat="46.10744" lon="6.44974">
        <ele>1692.840649</ele>
        <time>2015-05-25T11:59:58Z</time>
      </trkpt>
      <trkpt lat="46.10747" lon="6.44965">
        <ele>1689.835311</ele>
        <time>2015-05-25T12:00:06Z</time>
      </trkpt>
      <trkpt lat="46.1075" lon="6.44961">
        <ele>1686.489783</ele>
        <time>2015-05-25T12:00:14Z</time>
      </trkpt>
      <trkpt lat="46.1075" lon="6.44947">
        <ele>1677.651024</ele>
        <time>2015-05-25T12:00:35Z</time>
      </trkpt>
      <trkpt lat="46.10753" lon="6.44952">
        <ele>1677.807583</ele>
        <time>2015-05-25T12:00:39Z</time>
      </trkpt>
      <trkpt lat="46.10755" lon="6.4495">
        <ele>1675.336638</ele>
        <time>2015-05-25T12:00:45Z</time>
      </trkpt>
      <trkpt lat="46.10753" lon="6.44941">
        <ele>1672.890089</ele>
        <time>2015-05-25T12:00:51Z</time>
      </trkpt>
      <trkpt lat="46.10756" lon="6.44939">
        <ele>1671.303211</ele>
        <time>2015-05-25T12:01:10Z</time>
      </trkpt>
      <trkpt lat="46.10755" lon="6.44934">
        <ele>1668.926932</ele>
        <time>2015-05-25T12:01:14Z</time>
      </trkpt>
      <trkpt lat="46.10762" lon="6.44925">
        <ele>1665.627017</ele>
        <time>2015-05-25T12:01:24Z</time>
      </trkpt>
      <trkpt lat="46.10762" lon="6.44919">
        <ele>1662.588867</ele>
        <time>2015-05-25T12:01:28Z</time>
      </trkpt>
      <trkpt lat="46.10758" lon="6.44899">
        <ele>1658.32251</ele>
        <time>2015-05-25T12:01:44Z</time>
      </trkpt>
      <trkpt lat="46.10759" lon="6.44894">
        <ele>1657.563721</ele>
        <time>2015-05-25T12:01:48Z</time>
      </trkpt>
      <trkpt lat="46.10762" lon="6.44895">
        <ele>1655.678223</ele>
        <time>2015-05-25T12:01:52Z</time>
      </trkpt>
      <trkpt lat="46.10769" lon="6.44894">
        <ele>1653.864746</ele>
        <time>2015-05-25T12:01:56Z</time>
      </trkpt>
      <trkpt lat="46.1077" lon="6.44891">
        <ele>1653.801758</ele>
        <time>2015-05-25T12:02:00Z</time>
      </trkpt>
      <trkpt lat="46.10769" lon="6.44884">
        <ele>1652.098877</ele>
        <time>2015-05-25T12:02:04Z</time>
      </trkpt>
      <trkpt lat="46.1077" lon="6.44881">
        <ele>1651.592285</ele>
        <time>2015-05-25T12:02:06Z</time>
      </trkpt>
      <trkpt lat="46.10773" lon="6.44882">
        <ele>1647.687988</ele>
        <time>2015-05-25T12:02:14Z</time>
      </trkpt>
      <trkpt lat="46.10782" lon="6.44848">
        <ele>1636.419678</ele>
        <time>2015-05-25T12:02:42Z</time>
      </trkpt>
      <trkpt lat="46.10784" lon="6.44826">
        <ele>1632.978027</ele>
        <time>2015-05-25T12:02:58Z</time>
      </trkpt>
      <trkpt lat="46.10789" lon="6.44813">
        <ele>1629.902832</ele>
        <time>2015-05-25T12:03:14Z</time>
      </trkpt>
      <trkpt lat="46.10805" lon="6.4479">
        <ele>1622.087158</ele>
        <time>2015-05-25T12:03:34Z</time>
      </trkpt>
      <trkpt lat="46.10807" lon="6.44779">
        <ele>1621.385498</ele>
        <time>2015-05-25T12:03:42Z</time>
      </trkpt>
      <trkpt lat="46.10808" lon="6.4478">
        <ele>1621.072998</ele>
        <time>2015-05-25T12:03:46Z</time>
      </trkpt>
      <trkpt lat="46.10814" lon="6.4477">
        <ele>1620.618896</ele>
        <time>2015-05-25T12:03:54Z</time>
      </trkpt>
      <trkpt lat="46.10821" lon="6.44746">
        <ele>1620.900391</ele>
        <time>2015-05-25T12:04:06Z</time>
      </trkpt>
      <trkpt lat="46.10835" lon="6.44732">
        <ele>1615.48999</ele>
        <time>2015-05-25T12:04:41Z</time>
      </trkpt>
      <trkpt lat="46.10825" lon="6.4472">
        <ele>1611.292969</ele>
        <time>2015-05-25T12:06:29Z</time>
      </trkpt>
      <trkpt lat="46.10824" lon="6.44716">
        <ele>1610.53833</ele>
        <time>2015-05-25T12:07:04Z</time>
      </trkpt>
      <trkpt lat="46.10837" lon="6.44735">
        <ele>1612.430664</ele>
        <time>2015-05-25T12:07:28Z</time>
      </trkpt>
      <trkpt lat="46.10834" lon="6.44744">
        <ele>1614.556641</ele>
        <time>2015-05-25T12:07:36Z</time>
      </trkpt>
      <trkpt lat="46.10833" lon="6.44754">
        <ele>1614.469971</ele>
        <time>2015-05-25T12:08:15Z</time>
      </trkpt>
      <trkpt lat="46.1082" lon="6.44754">
        <ele>1614.569336</ele>
        <time>2015-05-25T12:08:55Z</time>
      </trkpt>
      <trkpt lat="46.10834" lon="6.4473">
        <ele>1614.191069</ele>
        <time>2015-05-25T12:09:48Z</time>
      </trkpt>
      <trkpt lat="46.10835" lon="6.44733">
        <ele>1614.067383</ele>
        <time>2015-05-25T12:10:46Z</time>
      </trkpt>
      <trkpt lat="46.10834" lon="6.44732">
        <ele>1613.936035</ele>
        <time>2015-05-25T12:12:24Z</time>
      </trkpt>
      <trkpt lat="46.10835" lon="6.4473">
        <ele>1613.518555</ele>
        <time>2015-05-25T12:14:04Z</time>
      </trkpt>
      <trkpt lat="46.10835" lon="6.44731">
        <ele>1612.518066</ele>
        <time>2015-05-25T12:15:03Z</time>
      </trkpt>
      <trkpt lat="46.10831" lon="6.44742">
        <ele>1613.685303</ele>
        <time>2015-05-25T12:15:42Z</time>
      </trkpt>
      <trkpt lat="46.10833" lon="6.44734">
        <ele>1612.925781</ele>
        <time>2015-05-25T12:16:11Z</time>
      </trkpt>
      <trkpt lat="46.10837" lon="6.44729">
        <ele>1612.106445</ele>
        <time>2015-05-25T12:16:15Z</time>
      </trkpt>
      <trkpt lat="46.10842" lon="6.44728">
        <ele>1611.379395</ele>
        <time>2015-05-25T12:16:19Z</time>
      </trkpt>
      <trkpt lat="46.10849" lon="6.44721">
        <ele>1609.659668</ele>
        <time>2015-05-25T12:16:27Z</time>
      </trkpt>
      <trkpt lat="46.10855" lon="6.44718">
        <ele>1607.958496</ele>
        <time>2015-05-25T12:16:43Z</time>
      </trkpt>
      <trkpt lat="46.10857" lon="6.44712">
        <ele>1605.88623</ele>
        <time>2015-05-25T12:16:47Z</time>
      </trkpt>
      <trkpt lat="46.10872" lon="6.44697">
        <ele>1602.992188</ele>
        <time>2015-05-25T12:17:03Z</time>
      </trkpt>
      <trkpt lat="46.10902" lon="6.44644">
        <ele>1601.114258</ele>
        <time>2015-05-25T12:17:35Z</time>
      </trkpt>
      <trkpt lat="46.10911" lon="6.44634">
        <ele>1598.840332</ele>
        <time>2015-05-25T12:17:43Z</time>
      </trkpt>
      <trkpt lat="46.10928" lon="6.44621">
        <ele>1590.912109</ele>
        <time>2015-05-25T12:17:59Z</time>
      </trkpt>
      <trkpt lat="46.10954" lon="6.44571">
        <ele>1581.119385</ele>
        <time>2015-05-25T12:18:31Z</time>
      </trkpt>
      <trkpt lat="46.10967" lon="6.44549">
        <ele>1574.900146</ele>
        <time>2015-05-25T12:18:47Z</time>
      </trkpt>
      <trkpt lat="46.10978" lon="6.4454">
        <ele>1571.000488</ele>
        <time>2015-05-25T12:18:55Z</time>
      </trkpt>
      <trkpt lat="46.11015" lon="6.44533">
        <ele>1564.561523</ele>
        <time>2015-05-25T12:19:27Z</time>
      </trkpt>
      <trkpt lat="46.11027" lon="6.44525">
        <ele>1564.601562</ele>
        <time>2015-05-25T12:19:43Z</time>
      </trkpt>
      <trkpt lat="46.1102" lon="6.44508">
        <ele>1564.17334</ele>
        <time>2015-05-25T12:20:07Z</time>
      </trkpt>
      <trkpt lat="46.11011" lon="6.44497">
        <ele>1562.158447</ele>
        <time>2015-05-25T12:20:15Z</time>
      </trkpt>
      <trkpt lat="46.11001" lon="6.44488">
        <ele>1561.786377</ele>
        <time>2015-05-25T12:20:23Z</time>
      </trkpt>
      <trkpt lat="46.10981" lon="6.44484">
        <ele>1557.066895</ele>
        <time>2015-05-25T12:20:39Z</time>
      </trkpt>
      <trkpt lat="46.10974" lon="6.44489">
        <ele>1553.391113</ele>
        <time>2015-05-25T12:20:47Z</time>
      </trkpt>
      <trkpt lat="46.10951" lon="6.44488">
        <ele>1546.633789</ele>
        <time>2015-05-25T12:21:03Z</time>
      </trkpt>
      <trkpt lat="46.10945" lon="6.4449">
        <ele>1544.700684</ele>
        <time>2015-05-25T12:21:09Z</time>
      </trkpt>
      <trkpt lat="46.10941" lon="6.44487">
        <ele>1540.07959</ele>
        <time>2015-05-25T12:21:13Z</time>
      </trkpt>
      <trkpt lat="46.10922" lon="6.44501">
        <ele>1534.825684</ele>
        <time>2015-05-25T12:21:29Z</time>
      </trkpt>
      <trkpt lat="46.10921" lon="6.44505">
        <ele>1531.372803</ele>
        <time>2015-05-25T12:21:33Z</time>
      </trkpt>
      <trkpt lat="46.10909" lon="6.44513">
        <ele>1535.802734</ele>
        <time>2015-05-25T12:21:41Z</time>
      </trkpt>
      <trkpt lat="46.10905" lon="6.44513">
        <ele>1532.659668</ele>
        <time>2015-05-25T12:21:45Z</time>
      </trkpt>
      <trkpt lat="46.10902" lon="6.44517">
        <ele>1533.927246</ele>
        <time>2015-05-25T12:21:49Z</time>
      </trkpt>
      <trkpt lat="46.10877" lon="6.44528">
        <ele>1535.502686</ele>
        <time>2015-05-25T12:22:05Z</time>
      </trkpt>
      <trkpt lat="46.10851" lon="6.44536">
        <ele>1541.132812</ele>
        <time>2015-05-25T12:22:23Z</time>
      </trkpt>
      <trkpt lat="46.10848" lon="6.44551">
        <ele>1543.107422</ele>
        <time>2015-05-25T12:22:29Z</time>
      </trkpt>
      <trkpt lat="46.10851" lon="6.44557">
        <ele>1542.726562</ele>
        <time>2015-05-25T12:22:37Z</time>
      </trkpt>
      <trkpt lat="46.10832" lon="6.44556">
        <ele>1538.991943</ele>
        <time>2015-05-25T12:22:49Z</time>
      </trkpt>
      <trkpt lat="46.10818" lon="6.44552">
        <ele>1540.529297</ele>
        <time>2015-05-25T12:22:53Z</time>
      </trkpt>
      <trkpt lat="46.10799" lon="6.44536">
        <ele>1542.871094</ele>
        <time>2015-05-25T12:23:01Z</time>
      </trkpt>
      <trkpt lat="46.10787" lon="6.44528">
        <ele>1541.859375</ele>
        <time>2015-05-25T12:23:05Z</time>
      </trkpt>
      <trkpt lat="46.10783" lon="6.44516">
        <ele>1538.35791</ele>
        <time>2015-05-25T12:23:13Z</time>
      </trkpt>
      <trkpt lat="46.10779" lon="6.44512">
        <ele>1539.54541</ele>
        <time>2015-05-25T12:23:17Z</time>
      </trkpt>
      <trkpt lat="46.10775" lon="6.44513">
        <ele>1537.608887</ele>
        <time>2015-05-25T12:23:19Z</time>
      </trkpt>
      <trkpt lat="46.10769" lon="6.4452">
        <ele>1537.369141</ele>
        <time>2015-05-25T12:23:23Z</time>
      </trkpt>
      <trkpt lat="46.10764" lon="6.44518">
        <ele>1536.242676</ele>
        <time>2015-05-25T12:23:27Z</time>
      </trkpt>
      <trkpt lat="46.10737" lon="6.44499">
        <ele>1536.230469</ele>
        <time>2015-05-25T12:23:47Z</time>
      </trkpt>
      <trkpt lat="46.10729" lon="6.445">
        <ele>1527.907715</ele>
        <time>2015-05-25T12:23:55Z</time>
      </trkpt>
      <trkpt lat="46.10724" lon="6.44502">
        <ele>1523.124512</ele>
        <time>2015-05-25T12:24:03Z</time>
      </trkpt>
      <trkpt lat="46.10715" lon="6.44514">
        <ele>1527.926758</ele>
        <time>2015-05-25T12:24:11Z</time>
      </trkpt>
      <trkpt lat="46.10705" lon="6.44521">
        <ele>1524.333984</ele>
        <time>2015-05-25T12:24:19Z</time>
      </trkpt>
      <trkpt lat="46.10698" lon="6.4453">
        <ele>1517.950439</ele>
        <time>2015-05-25T12:24:27Z</time>
      </trkpt>
      <trkpt lat="46.10688" lon="6.44537">
        <ele>1515.318359</ele>
        <time>2015-05-25T12:24:35Z</time>
      </trkpt>
      <trkpt lat="46.10668" lon="6.44561">
        <ele>1508.638672</ele>
        <time>2015-05-25T12:24:55Z</time>
      </trkpt>
      <trkpt lat="46.10662" lon="6.44563">
        <ele>1510.900635</ele>
        <time>2015-05-25T12:24:59Z</time>
      </trkpt>
      <trkpt lat="46.10654" lon="6.4457">
        <ele>1509.567871</ele>
        <time>2015-05-25T12:25:07Z</time>
      </trkpt>
      <trkpt lat="46.10647" lon="6.44572">
        <ele>1506.993896</ele>
        <time>2015-05-25T12:25:11Z</time>
      </trkpt>
      <trkpt lat="46.10643" lon="6.4457">
        <ele>1506.008789</ele>
        <time>2015-05-25T12:25:13Z</time>
      </trkpt>
      <trkpt lat="46.10643" lon="6.44567">
        <ele>1503.691406</ele>
        <time>2015-05-25T12:25:15Z</time>
      </trkpt>
      <trkpt lat="46.1065" lon="6.4456">
        <ele>1502.447998</ele>
        <time>2015-05-25T12:25:23Z</time>
      </trkpt>
      <trkpt lat="46.10657" lon="6.44558">
        <ele>1497.297607</ele>
        <time>2015-05-25T12:25:31Z</time>
      </trkpt>
      <trkpt lat="46.10666" lon="6.44538">
        <ele>1494.050781</ele>
        <time>2015-05-25T12:25:43Z</time>
      </trkpt>
      <trkpt lat="46.10667" lon="6.4452">
        <ele>1491.267578</ele>
        <time>2015-05-25T12:25:51Z</time>
      </trkpt>
      <trkpt lat="46.1066" lon="6.44499">
        <ele>1490.995361</ele>
        <time>2015-05-25T12:26:03Z</time>
      </trkpt>
      <trkpt lat="46.10658" lon="6.44474">
        <ele>1490.092529</ele>
        <time>2015-05-25T12:26:15Z</time>
      </trkpt>
      <trkpt lat="46.10659" lon="6.44445">
        <ele>1486.111816</ele>
        <time>2015-05-25T12:26:31Z</time>
      </trkpt>
      <trkpt lat="46.10661" lon="6.4443">
        <ele>1480.570801</ele>
        <time>2015-05-25T12:26:39Z</time>
      </trkpt>
      <trkpt lat="46.10657" lon="6.44415">
        <ele>1477.93335</ele>
        <time>2015-05-25T12:26:47Z</time>
      </trkpt>
      <trkpt lat="46.10658" lon="6.44408">
        <ele>1474.140381</ele>
        <time>2015-05-25T12:26:51Z</time>
      </trkpt>
      <trkpt lat="46.10671" lon="6.44385">
        <ele>1468.816895</ele>
        <time>2015-05-25T12:27:07Z</time>
      </trkpt>
      <trkpt lat="46.10677" lon="6.44386">
        <ele>1467.447998</ele>
        <time>2015-05-25T12:27:11Z</time>
      </trkpt>
      <trkpt lat="46.1068" lon="6.44381">
        <ele>1464.815918</ele>
        <time>2015-05-25T12:27:15Z</time>
      </trkpt>
      <trkpt lat="46.1069" lon="6.44373">
        <ele>1463.808105</ele>
        <time>2015-05-25T12:27:23Z</time>
      </trkpt>
      <trkpt lat="46.10695" lon="6.44363">
        <ele>1459.523193</ele>
        <time>2015-05-25T12:27:35Z</time>
      </trkpt>
      <trkpt lat="46.10706" lon="6.44356">
        <ele>1459.440063</ele>
        <time>2015-05-25T12:27:43Z</time>
      </trkpt>
      <trkpt lat="46.10722" lon="6.4435">
        <ele>1458.329224</ele>
        <time>2015-05-25T12:27:51Z</time>
      </trkpt>
      <trkpt lat="46.10732" lon="6.44338">
        <ele>1455.80542</ele>
        <time>2015-05-25T12:28:03Z</time>
      </trkpt>
      <trkpt lat="46.10731" lon="6.44335">
        <ele>1454.607544</ele>
        <time>2015-05-25T12:28:07Z</time>
      </trkpt>
      <trkpt lat="46.10746" lon="6.44324">
        <ele>1440.910034</ele>
        <time>2015-05-25T12:28:19Z</time>
      </trkpt>
      <trkpt lat="46.10751" lon="6.44325">
        <ele>1437.654541</ele>
        <time>2015-05-25T12:28:23Z</time>
      </trkpt>
      <trkpt lat="46.10754" lon="6.4432">
        <ele>1436.522339</ele>
        <time>2015-05-25T12:28:27Z</time>
      </trkpt>
      <trkpt lat="46.10776" lon="6.44312">
        <ele>1436.247437</ele>
        <time>2015-05-25T12:28:39Z</time>
      </trkpt>
      <trkpt lat="46.1078" lon="6.44307">
        <ele>1434.963379</ele>
        <time>2015-05-25T12:28:43Z</time>
      </trkpt>
      <trkpt lat="46.10778" lon="6.44317">
        <ele>1426.922241</ele>
        <time>2015-05-25T12:28:51Z</time>
      </trkpt>
      <trkpt lat="46.10782" lon="6.4432">
        <ele>1426.189697</ele>
        <time>2015-05-25T12:29:24Z</time>
      </trkpt>
      <trkpt lat="46.1077" lon="6.44319">
        <ele>1428.146973</ele>
        <time>2015-05-25T12:30:01Z</time>
      </trkpt>
      <trkpt lat="46.1077" lon="6.44316">
        <ele>1426.90918</ele>
        <time>2015-05-25T12:31:06Z</time>
      </trkpt>
      <trkpt lat="46.10773" lon="6.44315">
        <ele>1427.626343</ele>
        <time>2015-05-25T12:31:48Z</time>
      </trkpt>
      <trkpt lat="46.10775" lon="6.44319">
        <ele>1427.081665</ele>
        <time>2015-05-25T12:32:49Z</time>
      </trkpt>
      <trkpt lat="46.10775" lon="6.44325">
        <ele>1428.964722</ele>
        <time>2015-05-25T12:32:57Z</time>
      </trkpt>
      <trkpt lat="46.10776" lon="6.44322">
        <ele>1430.795166</ele>
        <time>2015-05-25T12:33:05Z</time>
      </trkpt>
      <trkpt lat="46.10774" lon="6.44319">
        <ele>1431.105347</ele>
        <time>2015-05-25T12:33:45Z</time>
      </trkpt>
      <trkpt lat="46.10784" lon="6.4432">
        <ele>1428.741089</ele>
        <time>2015-05-25T12:34:01Z</time>
      </trkpt>
      <trkpt lat="46.10789" lon="6.44325">
        <ele>1422.026123</ele>
        <time>2015-05-25T12:34:09Z</time>
      </trkpt>
      <trkpt lat="46.10814" lon="6.44328">
        <ele>1426.191162</ele>
        <time>2015-05-25T12:34:25Z</time>
      </trkpt>
      <trkpt lat="46.10819" lon="6.44327">
        <ele>1424.782471</ele>
        <time>2015-05-25T12:34:29Z</time>
      </trkpt>
      <trkpt lat="46.10837" lon="6.44305">
        <ele>1431.954102</ele>
        <time>2015-05-25T12:34:45Z</time>
      </trkpt>
      <trkpt lat="46.10846" lon="6.44272">
        <ele>1423.917603</ele>
        <time>2015-05-25T12:35:01Z</time>
      </trkpt>
      <trkpt lat="46.10848" lon="6.44259">
        <ele>1424.027466</ele>
        <time>2015-05-25T12:35:09Z</time>
      </trkpt>
      <trkpt lat="46.10846" lon="6.44216">
        <ele>1423.107544</ele>
        <time>2015-05-25T12:35:29Z</time>
      </trkpt>
      <trkpt lat="46.1085" lon="6.44192">
        <ele>1422.026489</ele>
        <time>2015-05-25T12:35:41Z</time>
      </trkpt>
      <trkpt lat="46.10843" lon="6.44177">
        <ele>1425.579834</ele>
        <time>2015-05-25T12:35:49Z</time>
      </trkpt>
      <trkpt lat="46.10842" lon="6.44168">
        <ele>1424.285034</ele>
        <time>2015-05-25T12:35:53Z</time>
      </trkpt>
      <trkpt lat="46.10844" lon="6.44152">
        <ele>1421.243042</ele>
        <time>2015-05-25T12:36:01Z</time>
      </trkpt>
      <trkpt lat="46.10847" lon="6.44139">
        <ele>1416.800903</ele>
        <time>2015-05-25T12:36:09Z</time>
      </trkpt>
      <trkpt lat="46.1085" lon="6.44093">
        <ele>1408.559937</ele>
        <time>2015-05-25T12:36:37Z</time>
      </trkpt>
      <trkpt lat="46.10856" lon="6.4408">
        <ele>1407.013916</ele>
        <time>2015-05-25T12:36:45Z</time>
      </trkpt>
      <trkpt lat="46.1086" lon="6.44047">
        <ele>1401.56604</ele>
        <time>2015-05-25T12:37:01Z</time>
      </trkpt>
      <trkpt lat="46.10866" lon="6.44024">
        <ele>1397.529541</ele>
        <time>2015-05-25T12:37:13Z</time>
      </trkpt>
      <trkpt lat="46.10863" lon="6.43998">
        <ele>1398.664917</ele>
        <time>2015-05-25T12:37:29Z</time>
      </trkpt>
      <trkpt lat="46.10865" lon="6.43972">
        <ele>1391.772583</ele>
        <time>2015-05-25T12:37:45Z</time>
      </trkpt>
      <trkpt lat="46.10863" lon="6.43964">
        <ele>1389.498291</ele>
        <time>2015-05-25T12:37:51Z</time>
      </trkpt>
      <trkpt lat="46.10861" lon="6.43966">
        <ele>1389.646362</ele>
        <time>2015-05-25T12:37:55Z</time>
      </trkpt>
      <trkpt lat="46.10862" lon="6.4397">
        <ele>1389.631226</ele>
        <time>2015-05-25T12:37:59Z</time>
      </trkpt>
      <trkpt lat="46.10865" lon="6.43971">
        <ele>1389.714355</ele>
        <time>2015-05-25T12:38:26Z</time>
      </trkpt>
      <trkpt lat="46.10853" lon="6.43982">
        <ele>1388.690344</ele>
        <time>2015-05-25T12:39:28Z</time>
      </trkpt>
      <trkpt lat="46.10854" lon="6.43992">
        <ele>1387.437085</ele>
        <time>2015-05-25T12:39:36Z</time>
      </trkpt>
      <trkpt lat="46.10848" lon="6.44005">
        <ele>1385.481266</ele>
        <time>2015-05-25T12:39:44Z</time>
      </trkpt>
      <trkpt lat="46.10839" lon="6.44015">
        <ele>1383.837283</ele>
        <time>2015-05-25T12:39:52Z</time>
      </trkpt>
      <trkpt lat="46.10828" lon="6.44023">
        <ele>1381.960468</ele>
        <time>2015-05-25T12:40:00Z</time>
      </trkpt>
      <trkpt lat="46.1082" lon="6.44033">
        <ele>1379.515958</ele>
        <time>2015-05-25T12:40:08Z</time>
      </trkpt>
      <trkpt lat="46.10814" lon="6.44038">
        <ele>1377.823126</ele>
        <time>2015-05-25T12:40:16Z</time>
      </trkpt>
      <trkpt lat="46.10806" lon="6.44057">
        <ele>1374.809698</ele>
        <time>2015-05-25T12:40:28Z</time>
      </trkpt>
      <trkpt lat="46.10801" lon="6.44061">
        <ele>1382.673096</ele>
        <time>2015-05-25T12:40:32Z</time>
      </trkpt>
      <trkpt lat="46.10797" lon="6.44069">
        <ele>1382.809814</ele>
        <time>2015-05-25T12:40:36Z</time>
      </trkpt>
      <trkpt lat="46.10793" lon="6.44072">
        <ele>1382.185547</ele>
        <time>2015-05-25T12:40:38Z</time>
      </trkpt>
      <trkpt lat="46.1079" lon="6.44071">
        <ele>1382.348877</ele>
        <time>2015-05-25T12:40:40Z</time>
      </trkpt>
      <trkpt lat="46.10789" lon="6.44064">
        <ele>1378.913574</ele>
        <time>2015-05-25T12:40:44Z</time>
      </trkpt>
      <trkpt lat="46.10792" lon="6.4405">
        <ele>1374.664673</ele>
        <time>2015-05-25T12:40:52Z</time>
      </trkpt>
      <trkpt lat="46.10792" lon="6.44036">
        <ele>1371.379272</ele>
        <time>2015-05-25T12:41:00Z</time>
      </trkpt>
      <trkpt lat="46.10795" lon="6.44025">
        <ele>1367.756226</ele>
        <time>2015-05-25T12:41:08Z</time>
      </trkpt>
      <trkpt lat="46.10799" lon="6.4402">
        <ele>1367.009521</ele>
        <time>2015-05-25T12:41:12Z</time>
      </trkpt>
      <trkpt lat="46.10801" lon="6.44003">
        <ele>1358.460693</ele>
        <time>2015-05-25T12:41:20Z</time>
      </trkpt>
      <trkpt lat="46.10801" lon="6.43988">
        <ele>1358.178833</ele>
        <time>2015-05-25T12:41:28Z</time>
      </trkpt>
      <trkpt lat="46.10796" lon="6.43955">
        <ele>1360.693359</ele>
        <time>2015-05-25T12:41:44Z</time>
      </trkpt>
      <trkpt lat="46.10797" lon="6.43928">
        <ele>1354.72998</ele>
        <time>2015-05-25T12:42:00Z</time>
      </trkpt>
      <trkpt lat="46.10796" lon="6.43919">
        <ele>1351.229736</ele>
        <time>2015-05-25T12:42:04Z</time>
      </trkpt>
      <trkpt lat="46.10798" lon="6.43902">
        <ele>1348.414917</ele>
        <time>2015-05-25T12:42:10Z</time>
      </trkpt>
      <trkpt lat="46.10791" lon="6.43904">
        <ele>1348.330566</ele>
        <time>2015-05-25T12:42:16Z</time>
      </trkpt>
      <trkpt lat="46.10789" lon="6.43914">
        <ele>1348.877319</ele>
        <time>2015-05-25T12:42:20Z</time>
      </trkpt>
      <trkpt lat="46.1079" lon="6.4392">
        <ele>1347.701294</ele>
        <time>2015-05-25T12:42:24Z</time>
      </trkpt>
      <trkpt lat="46.10788" lon="6.43933">
        <ele>1349.432861</ele>
        <time>2015-05-25T12:42:32Z</time>
      </trkpt>
      <trkpt lat="46.10788" lon="6.43946">
        <ele>1348.043701</ele>
        <time>2015-05-25T12:42:40Z</time>
      </trkpt>
      <trkpt lat="46.10783" lon="6.43959">
        <ele>1347.883301</ele>
        <time>2015-05-25T12:42:48Z</time>
      </trkpt>
      <trkpt lat="46.10775" lon="6.43969">
        <ele>1347.906494</ele>
        <time>2015-05-25T12:42:56Z</time>
      </trkpt>
      <trkpt lat="46.1077" lon="6.43981">
        <ele>1347.318726</ele>
        <time>2015-05-25T12:43:04Z</time>
      </trkpt>
      <trkpt lat="46.10759" lon="6.43992">
        <ele>1350.304688</ele>
        <time>2015-05-25T12:43:16Z</time>
      </trkpt>
      <trkpt lat="46.10757" lon="6.44002">
        <ele>1351.010986</ele>
        <time>2015-05-25T12:43:22Z</time>
      </trkpt>
      <trkpt lat="46.10746" lon="6.44007">
        <ele>1350.494995</ele>
        <time>2015-05-25T12:43:30Z</time>
      </trkpt>
      <trkpt lat="46.10739" lon="6.44017">
        <ele>1346.365845</ele>
        <time>2015-05-25T12:43:38Z</time>
      </trkpt>
      <trkpt lat="46.10735" lon="6.44026">
        <ele>1343.753174</ele>
        <time>2015-05-25T12:43:46Z</time>
      </trkpt>
      <trkpt lat="46.10727" lon="6.44036">
        <ele>1343.404297</ele>
        <time>2015-05-25T12:43:54Z</time>
      </trkpt>
      <trkpt lat="46.10718" lon="6.44042">
        <ele>1337.974854</ele>
        <time>2015-05-25T12:44:02Z</time>
      </trkpt>
      <trkpt lat="46.10717" lon="6.44053">
        <ele>1336.123779</ele>
        <time>2015-05-25T12:44:10Z</time>
      </trkpt>
      <trkpt lat="46.1071" lon="6.44064">
        <ele>1334.575195</ele>
        <time>2015-05-25T12:44:18Z</time>
      </trkpt>
      <trkpt lat="46.10704" lon="6.44067">
        <ele>1333.428589</ele>
        <time>2015-05-25T12:44:22Z</time>
      </trkpt>
      <trkpt lat="46.10702" lon="6.44065">
        <ele>1327.795776</ele>
        <time>2015-05-25T12:44:26Z</time>
      </trkpt>
      <trkpt lat="46.10705" lon="6.44066">
        <ele>1327.268188</ele>
        <time>2015-05-25T12:44:58Z</time>
      </trkpt>
      <trkpt lat="46.10701" lon="6.44065">
        <ele>1322.769409</ele>
        <time>2015-05-25T12:45:28Z</time>
      </trkpt>
      <trkpt lat="46.10697" lon="6.44059">
        <ele>1322.717651</ele>
        <time>2015-05-25T12:45:32Z</time>
      </trkpt>
      <trkpt lat="46.10652" lon="6.44048">
        <ele>1308.585061</ele>
        <time>2015-05-25T12:46:04Z</time>
      </trkpt>
      <trkpt lat="46.10614" lon="6.44032">
        <ele>1301.066112</ele>
        <time>2015-05-25T12:46:36Z</time>
      </trkpt>
      <trkpt lat="46.10599" lon="6.44029">
        <ele>1298.765359</ele>
        <time>2015-05-25T12:46:48Z</time>
      </trkpt>
      <trkpt lat="46.10593" lon="6.44024">
        <ele>1297.887678</ele>
        <time>2015-05-25T12:46:52Z</time>
      </trkpt>
      <trkpt lat="46.10588" lon="6.44014">
        <ele>1297.098324</ele>
        <time>2015-05-25T12:46:58Z</time>
      </trkpt>
      <trkpt lat="46.10584" lon="6.44014">
        <ele>1296.52733</ele>
        <time>2015-05-25T12:47:02Z</time>
      </trkpt>
      <trkpt lat="46.1058" lon="6.4401">
        <ele>1295.671552</ele>
        <time>2015-05-25T12:47:06Z</time>
      </trkpt>
      <trkpt lat="46.1056" lon="6.44">
        <ele>1293.262212</ele>
        <time>2015-05-25T12:47:22Z</time>
      </trkpt>
      <trkpt lat="46.10521" lon="6.43984">
        <ele>1287.611992</ele>
        <time>2015-05-25T12:47:54Z</time>
      </trkpt>
      <trkpt lat="46.10516" lon="6.43981">
        <ele>1293.563599</ele>
        <time>2015-05-25T12:47:58Z</time>
      </trkpt>
      <trkpt lat="46.105" lon="6.43975">
        <ele>1286.973999</ele>
        <time>2015-05-25T12:48:14Z</time>
      </trkpt>
      <trkpt lat="46.10467" lon="6.43973">
        <ele>1288.409912</ele>
        <time>2015-05-25T12:48:38Z</time>
      </trkpt>
      <trkpt lat="46.10458" lon="6.43977">
        <ele>1287.810059</ele>
        <time>2015-05-25T12:48:46Z</time>
      </trkpt>
      <trkpt lat="46.10442" lon="6.43994">
        <ele>1288.097656</ele>
        <time>2015-05-25T12:48:58Z</time>
      </trkpt>
      <trkpt lat="46.10432" lon="6.43999">
        <ele>1288.213013</ele>
        <time>2015-05-25T12:49:06Z</time>
      </trkpt>
      <trkpt lat="46.10423" lon="6.44012">
        <ele>1289.285645</ele>
        <time>2015-05-25T12:49:14Z</time>
      </trkpt>
      <trkpt lat="46.1042" lon="6.4402">
        <ele>1286.37561</ele>
        <time>2015-05-25T12:49:18Z</time>
      </trkpt>
      <trkpt lat="46.10418" lon="6.44036">
        <ele>1283.136963</ele>
        <time>2015-05-25T12:49:26Z</time>
      </trkpt>
      <trkpt lat="46.10414" lon="6.44052">
        <ele>1284.80957</ele>
        <time>2015-05-25T12:49:38Z</time>
      </trkpt>
      <trkpt lat="46.1041" lon="6.44054">
        <ele>1282.362183</ele>
        <time>2015-05-25T12:49:42Z</time>
      </trkpt>
      <trkpt lat="46.1039" lon="6.44038">
        <ele>1275.575195</ele>
        <time>2015-05-25T12:49:58Z</time>
      </trkpt>
      <trkpt lat="46.10378" lon="6.44026">
        <ele>1271.509644</ele>
        <time>2015-05-25T12:50:10Z</time>
      </trkpt>
      <trkpt lat="46.10375" lon="6.44019">
        <ele>1269.001343</ele>
        <time>2015-05-25T12:50:14Z</time>
      </trkpt>
      <trkpt lat="46.10376" lon="6.44014">
        <ele>1266.077637</ele>
        <time>2015-05-25T12:50:18Z</time>
      </trkpt>
      <trkpt lat="46.10378" lon="6.44015">
        <ele>1264.244019</ele>
        <time>2015-05-25T12:50:34Z</time>
      </trkpt>
      <trkpt lat="46.10378" lon="6.44019">
        <ele>1266.161687</ele>
        <time>2015-05-25T12:51:48Z</time>
      </trkpt>
      <trkpt lat="46.10375" lon="6.44024">
        <ele>1265.714064</ele>
        <time>2015-05-25T12:52:14Z</time>
      </trkpt>
      <trkpt lat="46.10382" lon="6.44031">
        <ele>1265.953615</ele>
        <time>2015-05-25T12:52:30Z</time>
      </trkpt>
      <trkpt lat="46.10381" lon="6.44037">
        <ele>1266.329139</ele>
        <time>2015-05-25T12:52:34Z</time>
      </trkpt>
      <trkpt lat="46.10387" lon="6.44033">
        <ele>1266.923097</ele>
        <time>2015-05-25T12:53:43Z</time>
      </trkpt>
      <trkpt lat="46.10382" lon="6.44026">
        <ele>1266.089066</ele>
        <time>2015-05-25T12:53:50Z</time>
      </trkpt>
      <trkpt lat="46.10382" lon="6.44019">
        <ele>1265.667832</ele>
        <time>2015-05-25T12:53:54Z</time>
      </trkpt>
      <trkpt lat="46.10377" lon="6.44014">
        <ele>1264.333472</ele>
        <time>2015-05-25T12:53:58Z</time>
      </trkpt>
      <trkpt lat="46.10345" lon="6.44005">
        <ele>1260.635995</ele>
        <time>2015-05-25T12:54:18Z</time>
      </trkpt>
      <trkpt lat="46.10339" lon="6.44008">
        <ele>1259.95631</ele>
        <time>2015-05-25T12:54:22Z</time>
      </trkpt>
      <trkpt lat="46.10329" lon="6.44021">
        <ele>1258.126204</ele>
        <time>2015-05-25T12:54:30Z</time>
      </trkpt>
      <trkpt lat="46.10305" lon="6.44022">
        <ele>1254.878304</ele>
        <time>2015-05-25T12:54:46Z</time>
      </trkpt>
      <trkpt lat="46.10281" lon="6.44015">
        <ele>1251.853612</ele>
        <time>2015-05-25T12:55:02Z</time>
      </trkpt>
      <trkpt lat="46.10232" lon="6.4398">
        <ele>1244.849734</ele>
        <time>2015-05-25T12:55:42Z</time>
      </trkpt>
      <trkpt lat="46.10223" lon="6.43977">
        <ele>1244.250626</ele>
        <time>2015-05-25T12:55:46Z</time>
      </trkpt>
      <trkpt lat="46.10218" lon="6.43967">
        <ele>1242.41926</ele>
        <time>2015-05-25T12:55:54Z</time>
      </trkpt>
      <trkpt lat="46.10205" lon="6.43956">
        <ele>1240.237005</ele>
        <time>2015-05-25T12:56:02Z</time>
      </trkpt>
      <trkpt lat="46.10201" lon="6.4395">
        <ele>1239.552843</ele>
        <time>2015-05-25T12:56:06Z</time>
      </trkpt>
      <trkpt lat="46.10199" lon="6.43945">
        <ele>1238.651312</ele>
        <time>2015-05-25T12:56:10Z</time>
      </trkpt>
      <trkpt lat="46.10181" lon="6.43933">
        <ele>1235.68369</ele>
        <time>2015-05-25T12:56:22Z</time>
      </trkpt>
      <trkpt lat="46.10177" lon="6.43933">
        <ele>1235.1084</ele>
        <time>2015-05-25T12:56:26Z</time>
      </trkpt>
      <trkpt lat="46.10141" lon="6.43915">
        <ele>1229.801709</ele>
        <time>2015-05-25T12:56:50Z</time>
      </trkpt>
      <trkpt lat="46.10135" lon="6.43916">
        <ele>1229.00395</ele>
        <time>2015-05-25T12:56:54Z</time>
      </trkpt>
      <trkpt lat="46.10112" lon="6.43909">
        <ele>1225.800832</ele>
        <time>2015-05-25T12:57:10Z</time>
      </trkpt>
      <trkpt lat="46.10071" lon="6.43906">
        <ele>1219.681275</ele>
        <time>2015-05-25T12:57:42Z</time>
      </trkpt>
      <trkpt lat="46.1004" lon="6.4391">
        <ele>1215.360499</ele>
        <time>2015-05-25T12:58:06Z</time>
      </trkpt>
      <trkpt lat="46.10027" lon="6.43909">
        <ele>1213.967875</ele>
        <time>2015-05-25T12:58:14Z</time>
      </trkpt>
      <trkpt lat="46.09986" lon="6.43923">
        <ele>1209.086016</ele>
        <time>2015-05-25T12:58:46Z</time>
      </trkpt>
      <trkpt lat="46.09967" lon="6.43933">
        <ele>1205.834057</ele>
        <time>2015-05-25T12:59:02Z</time>
      </trkpt>
      <trkpt lat="46.09956" lon="6.43941">
        <ele>1204.320639</ele>
        <time>2015-05-25T12:59:10Z</time>
      </trkpt>
      <trkpt lat="46.09948" lon="6.43952">
        <ele>1202.368209</ele>
        <time>2015-05-25T12:59:18Z</time>
      </trkpt>
      <trkpt lat="46.09915" lon="6.43977">
        <ele>1196.318287</ele>
        <time>2015-05-25T12:59:46Z</time>
      </trkpt>
      <trkpt lat="46.09906" lon="6.43997">
        <ele>1191.543945</ele>
        <time>2015-05-25T12:59:58Z</time>
      </trkpt>
      <trkpt lat="46.09899" lon="6.43999">
        <ele>1192.207031</ele>
        <time>2015-05-25T13:00:02Z</time>
      </trkpt>
      <trkpt lat="46.09897" lon="6.43998">
        <ele>1190.936401</ele>
        <time>2015-05-25T13:00:04Z</time>
      </trkpt>
      <trkpt lat="46.09897" lon="6.43981">
        <ele>1186.9021</ele>
        <time>2015-05-25T13:00:12Z</time>
      </trkpt>
      <trkpt lat="46.09904" lon="6.43953">
        <ele>1182.370483</ele>
        <time>2015-05-25T13:00:28Z</time>
      </trkpt>
      <trkpt lat="46.0991" lon="6.43921">
        <ele>1176.029907</ele>
        <time>2015-05-25T13:00:44Z</time>
      </trkpt>
      <trkpt lat="46.09912" lon="6.43915">
        <ele>1174.590088</ele>
        <time>2015-05-25T13:00:48Z</time>
      </trkpt>
      <trkpt lat="46.09914" lon="6.43891">
        <ele>1170.90625</ele>
        <time>2015-05-25T13:01:00Z</time>
      </trkpt>
      <trkpt lat="46.09911" lon="6.43865">
        <ele>1167.567749</ele>
        <time>2015-05-25T13:01:12Z</time>
      </trkpt>
      <trkpt lat="46.09913" lon="6.4384">
        <ele>1171.760473</ele>
        <time>2015-05-25T13:01:24Z</time>
      </trkpt>
      <trkpt lat="46.09916" lon="6.43836">
        <ele>1171.477305</ele>
        <time>2015-05-25T13:01:28Z</time>
      </trkpt>
      <trkpt lat="46.09926" lon="6.43844">
        <ele>1158.820671</ele>
        <time>2015-05-25T13:02:19Z</time>
      </trkpt>
      <trkpt lat="46.09925" lon="6.43842">
        <ele>1157.680332</ele>
        <time>2015-05-25T13:02:29Z</time>
      </trkpt>
      <trkpt lat="46.09927" lon="6.43842">
        <ele>1157.821371</ele>
        <time>2015-05-25T13:02:33Z</time>
      </trkpt>
      <trkpt lat="46.09931" lon="6.43824">
        <ele>1155.871521</ele>
        <time>2015-05-25T13:02:51Z</time>
      </trkpt>
      <trkpt lat="46.09936" lon="6.43813">
        <ele>1154.565407</ele>
        <time>2015-05-25T13:02:59Z</time>
      </trkpt>
      <trkpt lat="46.09948" lon="6.43799">
        <ele>1153.636169</ele>
        <time>2015-05-25T13:03:11Z</time>
      </trkpt>
      <trkpt lat="46.09963" lon="6.43766">
        <ele>1151.083792</ele>
        <time>2015-05-25T13:03:31Z</time>
      </trkpt>
      <trkpt lat="46.09978" lon="6.43747">
        <ele>1149.47476</ele>
        <time>2015-05-25T13:03:47Z</time>
      </trkpt>
      <trkpt lat="46.10012" lon="6.43726">
        <ele>1146.43883</ele>
        <time>2015-05-25T13:04:15Z</time>
      </trkpt>
      <trkpt lat="46.10035" lon="6.43715">
        <ele>1143.96557</ele>
        <time>2015-05-25T13:04:31Z</time>
      </trkpt>
      <trkpt lat="46.10053" lon="6.43702">
        <ele>1142.325165</ele>
        <time>2015-05-25T13:04:47Z</time>
      </trkpt>
      <trkpt lat="46.10084" lon="6.43696">
        <ele>1139.459388</ele>
        <time>2015-05-25T13:05:22Z</time>
      </trkpt>
      <trkpt lat="46.10104" lon="6.43694">
        <ele>1136.324707</ele>
        <time>2015-05-25T13:05:38Z</time>
      </trkpt>
      <trkpt lat="46.1013" lon="6.43689">
        <ele>1133.026978</ele>
        <time>2015-05-25T13:05:58Z</time>
      </trkpt>
      <trkpt lat="46.10129" lon="6.43692">
        <ele>1133.577759</ele>
        <time>2015-05-25T13:06:06Z</time>
      </trkpt>
      <trkpt lat="46.10149" lon="6.43683">
        <ele>1131.536255</ele>
        <time>2015-05-25T13:06:22Z</time>
      </trkpt>
      <trkpt lat="46.10168" lon="6.43668">
        <ele>1130.300903</ele>
        <time>2015-05-25T13:06:38Z</time>
      </trkpt>
      <trkpt lat="46.10186" lon="6.4365">
        <ele>1128.405762</ele>
        <time>2015-05-25T13:06:54Z</time>
      </trkpt>
      <trkpt lat="46.10201" lon="6.43626">
        <ele>1123.62085</ele>
        <time>2015-05-25T13:07:14Z</time>
      </trkpt>
      <trkpt lat="46.1022" lon="6.43574">
        <ele>1119.584717</ele>
        <time>2015-05-25T13:07:46Z</time>
      </trkpt>
      <trkpt lat="46.10228" lon="6.43548">
        <ele>1121.045654</ele>
        <time>2015-05-25T13:08:02Z</time>
      </trkpt>
      <trkpt lat="46.10257" lon="6.43473">
        <ele>1116.042603</ele>
        <time>2015-05-25T13:08:50Z</time>
      </trkpt>
      <trkpt lat="46.10258" lon="6.43467">
        <ele>1115.992676</ele>
        <time>2015-05-25T13:08:54Z</time>
      </trkpt>
      <trkpt lat="46.10256" lon="6.43459">
        <ele>1115.69104</ele>
        <time>2015-05-25T13:08:58Z</time>
      </trkpt>
      <trkpt lat="46.10252" lon="6.43454">
        <ele>1117.291016</ele>
        <time>2015-05-25T13:09:02Z</time>
      </trkpt>
      <trkpt lat="46.10243" lon="6.43455">
        <ele>1113.419556</ele>
        <time>2015-05-25T13:09:13Z</time>
      </trkpt>
    </trkseg>
  </trk>
</gpx>